<?xml version="1.0" encoding="UTF-8" standalone="no" ?>
<gpx xmlns="http://www.topografix.com/GPX/1/1" xmlns:xsi="http://www.w3.org/2001/XMLSchema-instance" xsi:schemaLocation="http://www.topografix.com/GPX/1/1 http://www.topografix.com/GPX/1/1/gpx.xsd" version="1.1" creator="VisuGPX - https://www.visugpx.com">
  <metadata>
    <name>Stauffen et les chateaux </name>
    <desc><![CDATA[chouettes épingles..................]]></desc>
  </metadata>
  <trk>
    <name><![CDATA[Sortie MTB massif du Stauffen]]></name>
    <trkseg>
      <trkpt lat="48.05793" lon="7.23412">
        <ele>282.4</ele>
        <time>2014-10-26T07:36:47Z</time>
      </trkpt>
      <trkpt lat="48.05785" lon="7.23438">
        <ele>282.7</ele>
        <time>2014-10-26T07:37:38Z</time>
      </trkpt>
      <trkpt lat="48.05768" lon="7.23454">
        <ele>282.7</ele>
        <time>2014-10-26T07:37:44Z</time>
      </trkpt>
      <trkpt lat="48.05753" lon="7.23475">
        <ele>282.4</ele>
        <time>2014-10-26T07:37:49Z</time>
      </trkpt>
      <trkpt lat="48.05739" lon="7.23495">
        <ele>282.2</ele>
        <time>2014-10-26T07:37:54Z</time>
      </trkpt>
      <trkpt lat="48.05723" lon="7.23512">
        <ele>282.1</ele>
        <time>2014-10-26T07:37:59Z</time>
      </trkpt>
      <trkpt lat="48.05709" lon="7.23528">
        <ele>282</ele>
        <time>2014-10-26T07:38:04Z</time>
      </trkpt>
      <trkpt lat="48.05694" lon="7.23546">
        <ele>282.4</ele>
        <time>2014-10-26T07:38:09Z</time>
      </trkpt>
      <trkpt lat="48.05678" lon="7.23566">
        <ele>283</ele>
        <time>2014-10-26T07:38:14Z</time>
      </trkpt>
      <trkpt lat="48.05662" lon="7.23585">
        <ele>283.6</ele>
        <time>2014-10-26T07:38:19Z</time>
      </trkpt>
      <trkpt lat="48.05647" lon="7.23604">
        <ele>284.2</ele>
        <time>2014-10-26T07:38:24Z</time>
      </trkpt>
      <trkpt lat="48.05629" lon="7.23623">
        <ele>284.9</ele>
        <time>2014-10-26T07:38:29Z</time>
      </trkpt>
      <trkpt lat="48.05612" lon="7.23643">
        <ele>290.6</ele>
        <time>2014-10-26T07:38:34Z</time>
      </trkpt>
      <trkpt lat="48.05598" lon="7.23663">
        <ele>297.8</ele>
        <time>2014-10-26T07:38:40Z</time>
      </trkpt>
      <trkpt lat="48.05588" lon="7.23687">
        <ele>305.1</ele>
        <time>2014-10-26T07:38:46Z</time>
      </trkpt>
      <trkpt lat="48.05594" lon="7.23713">
        <ele>306.9</ele>
        <time>2014-10-26T07:38:53Z</time>
      </trkpt>
      <trkpt lat="48.05604" lon="7.2374">
        <ele>306.6</ele>
        <time>2014-10-26T07:39:01Z</time>
      </trkpt>
      <trkpt lat="48.05613" lon="7.23764">
        <ele>306.5</ele>
        <time>2014-10-26T07:39:08Z</time>
      </trkpt>
      <trkpt lat="48.05625" lon="7.23789">
        <ele>305.7</ele>
        <time>2014-10-26T07:39:14Z</time>
      </trkpt>
      <trkpt lat="48.05637" lon="7.23812">
        <ele>304.9</ele>
        <time>2014-10-26T07:39:19Z</time>
      </trkpt>
      <trkpt lat="48.05648" lon="7.2384">
        <ele>304.7</ele>
        <time>2014-10-26T07:39:25Z</time>
      </trkpt>
      <trkpt lat="48.0566" lon="7.23867">
        <ele>304.7</ele>
        <time>2014-10-26T07:39:31Z</time>
      </trkpt>
      <trkpt lat="48.05668" lon="7.23894">
        <ele>304.6</ele>
        <time>2014-10-26T07:39:37Z</time>
      </trkpt>
      <trkpt lat="48.05683" lon="7.23909">
        <ele>302.7</ele>
        <time>2014-10-26T07:41:07Z</time>
      </trkpt>
      <trkpt lat="48.05701" lon="7.23915">
        <ele>300.2</ele>
        <time>2014-10-26T07:41:58Z</time>
      </trkpt>
      <trkpt lat="48.05717" lon="7.23928">
        <ele>299.3</ele>
        <time>2014-10-26T07:42:06Z</time>
      </trkpt>
      <trkpt lat="48.05733" lon="7.23945">
        <ele>299.6</ele>
        <time>2014-10-26T07:42:14Z</time>
      </trkpt>
      <trkpt lat="48.05717" lon="7.23959">
        <ele>301.5</ele>
        <time>2014-10-26T07:42:48Z</time>
      </trkpt>
      <trkpt lat="48.05701" lon="7.23972">
        <ele>304.8</ele>
        <time>2014-10-26T07:42:58Z</time>
      </trkpt>
      <trkpt lat="48.05683" lon="7.23983">
        <ele>308.2</ele>
        <time>2014-10-26T07:43:07Z</time>
      </trkpt>
      <trkpt lat="48.05665" lon="7.23991">
        <ele>310.5</ele>
        <time>2014-10-26T07:43:18Z</time>
      </trkpt>
      <trkpt lat="48.05647" lon="7.23997">
        <ele>312.6</ele>
        <time>2014-10-26T07:43:30Z</time>
      </trkpt>
      <trkpt lat="48.05652" lon="7.24023">
        <ele>314</ele>
        <time>2014-10-26T07:43:45Z</time>
      </trkpt>
      <trkpt lat="48.05669" lon="7.24038">
        <ele>314.6</ele>
        <time>2014-10-26T07:43:59Z</time>
      </trkpt>
      <trkpt lat="48.05684" lon="7.24052">
        <ele>317.1</ele>
        <time>2014-10-26T07:44:07Z</time>
      </trkpt>
      <trkpt lat="48.05701" lon="7.24064">
        <ele>319.9</ele>
        <time>2014-10-26T07:44:18Z</time>
      </trkpt>
      <trkpt lat="48.05725" lon="7.24068">
        <ele>320.6</ele>
        <time>2014-10-26T07:44:45Z</time>
      </trkpt>
      <trkpt lat="48.05713" lon="7.24042">
        <ele>314.1</ele>
        <time>2014-10-26T07:45:55Z</time>
      </trkpt>
      <trkpt lat="48.05695" lon="7.24023">
        <ele>311.9</ele>
        <time>2014-10-26T07:45:59Z</time>
      </trkpt>
      <trkpt lat="48.05674" lon="7.24012">
        <ele>311.9</ele>
        <time>2014-10-26T07:46:03Z</time>
      </trkpt>
      <trkpt lat="48.05653" lon="7.2401">
        <ele>313</ele>
        <time>2014-10-26T07:46:07Z</time>
      </trkpt>
      <trkpt lat="48.05696" lon="7.23983">
        <ele>306.7</ele>
        <time>2014-10-26T07:46:21Z</time>
      </trkpt>
      <trkpt lat="48.05718" lon="7.23966">
        <ele>302.5</ele>
        <time>2014-10-26T07:46:24Z</time>
      </trkpt>
      <trkpt lat="48.05736" lon="7.23956">
        <ele>300.2</ele>
        <time>2014-10-26T07:46:27Z</time>
      </trkpt>
      <trkpt lat="48.05757" lon="7.23945">
        <ele>298.1</ele>
        <time>2014-10-26T07:46:32Z</time>
      </trkpt>
      <trkpt lat="48.05739" lon="7.23932">
        <ele>298.2</ele>
        <time>2014-10-26T07:46:43Z</time>
      </trkpt>
      <trkpt lat="48.05721" lon="7.23927">
        <ele>299</ele>
        <time>2014-10-26T07:46:49Z</time>
      </trkpt>
      <trkpt lat="48.05699" lon="7.2392">
        <ele>300.7</ele>
        <time>2014-10-26T07:46:56Z</time>
      </trkpt>
      <trkpt lat="48.05679" lon="7.23915">
        <ele>303.6</ele>
        <time>2014-10-26T07:47:02Z</time>
      </trkpt>
      <trkpt lat="48.0566" lon="7.23911">
        <ele>306.6</ele>
        <time>2014-10-26T07:47:08Z</time>
      </trkpt>
      <trkpt lat="48.05642" lon="7.23907">
        <ele>309.5</ele>
        <time>2014-10-26T07:47:17Z</time>
      </trkpt>
      <trkpt lat="48.05633" lon="7.23882">
        <ele>310.6</ele>
        <time>2014-10-26T07:47:29Z</time>
      </trkpt>
      <trkpt lat="48.05618" lon="7.23866">
        <ele>312.7</ele>
        <time>2014-10-26T07:47:41Z</time>
      </trkpt>
      <trkpt lat="48.05602" lon="7.23852">
        <ele>315.6</ele>
        <time>2014-10-26T07:47:55Z</time>
      </trkpt>
      <trkpt lat="48.05587" lon="7.23831">
        <ele>318.9</ele>
        <time>2014-10-26T07:48:08Z</time>
      </trkpt>
      <trkpt lat="48.05578" lon="7.23807">
        <ele>322</ele>
        <time>2014-10-26T07:48:19Z</time>
      </trkpt>
      <trkpt lat="48.05565" lon="7.23785">
        <ele>326.3</ele>
        <time>2014-10-26T07:48:36Z</time>
      </trkpt>
      <trkpt lat="48.05548" lon="7.23775">
        <ele>331.3</ele>
        <time>2014-10-26T07:48:48Z</time>
      </trkpt>
      <trkpt lat="48.05527" lon="7.23759">
        <ele>338.1</ele>
        <time>2014-10-26T07:49:05Z</time>
      </trkpt>
      <trkpt lat="48.05505" lon="7.23772">
        <ele>348.3</ele>
        <time>2014-10-26T07:49:18Z</time>
      </trkpt>
      <trkpt lat="48.05486" lon="7.23782">
        <ele>356.9</ele>
        <time>2014-10-26T07:49:22Z</time>
      </trkpt>
      <trkpt lat="48.05469" lon="7.23796">
        <ele>364</ele>
        <time>2014-10-26T07:49:26Z</time>
      </trkpt>
      <trkpt lat="48.05454" lon="7.23829">
        <ele>365</ele>
        <time>2014-10-26T07:49:36Z</time>
      </trkpt>
      <trkpt lat="48.0545" lon="7.23863">
        <ele>361.6</ele>
        <time>2014-10-26T07:49:43Z</time>
      </trkpt>
      <trkpt lat="48.05452" lon="7.23893">
        <ele>356.8</ele>
        <time>2014-10-26T07:49:53Z</time>
      </trkpt>
      <trkpt lat="48.05438" lon="7.23918">
        <ele>359.9</ele>
        <time>2014-10-26T07:50:11Z</time>
      </trkpt>
      <trkpt lat="48.05426" lon="7.23946">
        <ele>361.5</ele>
        <time>2014-10-26T07:50:26Z</time>
      </trkpt>
      <trkpt lat="48.05415" lon="7.2397">
        <ele>362.6</ele>
        <time>2014-10-26T07:50:38Z</time>
      </trkpt>
      <trkpt lat="48.05402" lon="7.24">
        <ele>362.2</ele>
        <time>2014-10-26T07:50:52Z</time>
      </trkpt>
      <trkpt lat="48.05396" lon="7.24026">
        <ele>359.5</ele>
        <time>2014-10-26T07:51:36Z</time>
      </trkpt>
      <trkpt lat="48.05378" lon="7.24033">
        <ele>364</ele>
        <time>2014-10-26T07:51:51Z</time>
      </trkpt>
      <trkpt lat="48.05366" lon="7.24053">
        <ele>365.4</ele>
        <time>2014-10-26T07:51:58Z</time>
      </trkpt>
      <trkpt lat="48.05351" lon="7.24071">
        <ele>369.2</ele>
        <time>2014-10-26T07:52:05Z</time>
      </trkpt>
      <trkpt lat="48.05337" lon="7.24088">
        <ele>372.5</ele>
        <time>2014-10-26T07:52:17Z</time>
      </trkpt>
      <trkpt lat="48.05315" lon="7.24124">
        <ele>376.4</ele>
        <time>2014-10-26T07:52:35Z</time>
      </trkpt>
      <trkpt lat="48.05303" lon="7.24148">
        <ele>378.1</ele>
        <time>2014-10-26T07:52:46Z</time>
      </trkpt>
      <trkpt lat="48.05293" lon="7.2417">
        <ele>379.6</ele>
        <time>2014-10-26T07:52:55Z</time>
      </trkpt>
      <trkpt lat="48.05295" lon="7.24141">
        <ele>381.5</ele>
        <time>2014-10-26T07:54:56Z</time>
      </trkpt>
      <trkpt lat="48.05299" lon="7.24113">
        <ele>382.8</ele>
        <time>2014-10-26T07:55:04Z</time>
      </trkpt>
      <trkpt lat="48.05297" lon="7.24085">
        <ele>386.9</ele>
        <time>2014-10-26T07:55:13Z</time>
      </trkpt>
      <trkpt lat="48.05295" lon="7.24057">
        <ele>391.1</ele>
        <time>2014-10-26T07:55:26Z</time>
      </trkpt>
      <trkpt lat="48.05297" lon="7.2403">
        <ele>395.1</ele>
        <time>2014-10-26T07:55:42Z</time>
      </trkpt>
      <trkpt lat="48.05302" lon="7.24">
        <ele>400.4</ele>
        <time>2014-10-26T07:55:54Z</time>
      </trkpt>
      <trkpt lat="48.05307" lon="7.23972">
        <ele>405.7</ele>
        <time>2014-10-26T07:56:05Z</time>
      </trkpt>
      <trkpt lat="48.05316" lon="7.23946">
        <ele>407.6</ele>
        <time>2014-10-26T07:56:16Z</time>
      </trkpt>
      <trkpt lat="48.05325" lon="7.23922">
        <ele>408.4</ele>
        <time>2014-10-26T07:56:27Z</time>
      </trkpt>
      <trkpt lat="48.0533" lon="7.23896">
        <ele>410.9</ele>
        <time>2014-10-26T07:57:00Z</time>
      </trkpt>
      <trkpt lat="48.05338" lon="7.23871">
        <ele>411.2</ele>
        <time>2014-10-26T07:57:34Z</time>
      </trkpt>
      <trkpt lat="48.05347" lon="7.23846">
        <ele>409.3</ele>
        <time>2014-10-26T07:57:45Z</time>
      </trkpt>
      <trkpt lat="48.0535" lon="7.23817">
        <ele>410.1</ele>
        <time>2014-10-26T07:57:54Z</time>
      </trkpt>
      <trkpt lat="48.05351" lon="7.2379">
        <ele>411.5</ele>
        <time>2014-10-26T07:58:02Z</time>
      </trkpt>
      <trkpt lat="48.05347" lon="7.23762">
        <ele>412.7</ele>
        <time>2014-10-26T07:58:13Z</time>
      </trkpt>
      <trkpt lat="48.05346" lon="7.23733">
        <ele>412.1</ele>
        <time>2014-10-26T07:58:23Z</time>
      </trkpt>
      <trkpt lat="48.05349" lon="7.23705">
        <ele>409.5</ele>
        <time>2014-10-26T07:58:35Z</time>
      </trkpt>
      <trkpt lat="48.05351" lon="7.23676">
        <ele>405.4</ele>
        <time>2014-10-26T07:58:45Z</time>
      </trkpt>
      <trkpt lat="48.05349" lon="7.23646">
        <ele>403.2</ele>
        <time>2014-10-26T07:58:56Z</time>
      </trkpt>
      <trkpt lat="48.05341" lon="7.23621">
        <ele>403.4</ele>
        <time>2014-10-26T07:59:06Z</time>
      </trkpt>
      <trkpt lat="48.05331" lon="7.23598">
        <ele>403.5</ele>
        <time>2014-10-26T07:59:18Z</time>
      </trkpt>
      <trkpt lat="48.05319" lon="7.23577">
        <ele>404.5</ele>
        <time>2014-10-26T07:59:30Z</time>
      </trkpt>
      <trkpt lat="48.05307" lon="7.23556">
        <ele>405.7</ele>
        <time>2014-10-26T07:59:41Z</time>
      </trkpt>
      <trkpt lat="48.05297" lon="7.23533">
        <ele>406.2</ele>
        <time>2014-10-26T07:59:53Z</time>
      </trkpt>
      <trkpt lat="48.05283" lon="7.23514">
        <ele>406.4</ele>
        <time>2014-10-26T08:00:04Z</time>
      </trkpt>
      <trkpt lat="48.05271" lon="7.23494">
        <ele>403.6</ele>
        <time>2014-10-26T08:00:14Z</time>
      </trkpt>
      <trkpt lat="48.05254" lon="7.23482">
        <ele>401.8</ele>
        <time>2014-10-26T08:00:23Z</time>
      </trkpt>
      <trkpt lat="48.05236" lon="7.23492">
        <ele>404.1</ele>
        <time>2014-10-26T08:00:31Z</time>
      </trkpt>
      <trkpt lat="48.05234" lon="7.23511">
        <ele>407.9</ele>
        <time>2014-10-26T08:05:34Z</time>
      </trkpt>
      <trkpt lat="48.05251" lon="7.23521">
        <ele>409</ele>
        <time>2014-10-26T08:05:52Z</time>
      </trkpt>
      <trkpt lat="48.05211" lon="7.23867">
        <ele>470.9</ele>
        <time>2014-10-26T08:07:57Z</time>
      </trkpt>
      <trkpt lat="48.05196" lon="7.23881">
        <ele>475.7</ele>
        <time>2014-10-26T08:08:05Z</time>
      </trkpt>
      <trkpt lat="48.05179" lon="7.23894">
        <ele>479.6</ele>
        <time>2014-10-26T08:08:14Z</time>
      </trkpt>
      <trkpt lat="48.05162" lon="7.23904">
        <ele>484.7</ele>
        <time>2014-10-26T08:08:23Z</time>
      </trkpt>
      <trkpt lat="48.05148" lon="7.2392">
        <ele>488</ele>
        <time>2014-10-26T08:08:31Z</time>
      </trkpt>
      <trkpt lat="48.05133" lon="7.23937">
        <ele>491.9</ele>
        <time>2014-10-26T08:08:44Z</time>
      </trkpt>
      <trkpt lat="48.0512" lon="7.23959">
        <ele>493.4</ele>
        <time>2014-10-26T08:08:53Z</time>
      </trkpt>
      <trkpt lat="48.05105" lon="7.23976">
        <ele>493</ele>
        <time>2014-10-26T08:09:02Z</time>
      </trkpt>
      <trkpt lat="48.05087" lon="7.23988">
        <ele>495.6</ele>
        <time>2014-10-26T08:09:12Z</time>
      </trkpt>
      <trkpt lat="48.05069" lon="7.24">
        <ele>498.9</ele>
        <time>2014-10-26T08:09:23Z</time>
      </trkpt>
      <trkpt lat="48.05054" lon="7.24016">
        <ele>500.5</ele>
        <time>2014-10-26T08:09:34Z</time>
      </trkpt>
      <trkpt lat="48.05044" lon="7.24038">
        <ele>499.8</ele>
        <time>2014-10-26T08:09:47Z</time>
      </trkpt>
      <trkpt lat="48.05036" lon="7.24063">
        <ele>498.6</ele>
        <time>2014-10-26T08:09:58Z</time>
      </trkpt>
      <trkpt lat="48.05024" lon="7.24083">
        <ele>500.3</ele>
        <time>2014-10-26T08:10:07Z</time>
      </trkpt>
      <trkpt lat="48.05013" lon="7.24107">
        <ele>501.7</ele>
        <time>2014-10-26T08:10:16Z</time>
      </trkpt>
      <trkpt lat="48.05002" lon="7.24131">
        <ele>504.3</ele>
        <time>2014-10-26T08:10:27Z</time>
      </trkpt>
      <trkpt lat="48.04997" lon="7.24158">
        <ele>504.7</ele>
        <time>2014-10-26T08:10:36Z</time>
      </trkpt>
      <trkpt lat="48.05001" lon="7.24185">
        <ele>500.8</ele>
        <time>2014-10-26T08:10:44Z</time>
      </trkpt>
      <trkpt lat="48.05005" lon="7.24212">
        <ele>497.4</ele>
        <time>2014-10-26T08:10:54Z</time>
      </trkpt>
      <trkpt lat="48.05016" lon="7.24236">
        <ele>493.2</ele>
        <time>2014-10-26T08:11:03Z</time>
      </trkpt>
      <trkpt lat="48.05024" lon="7.24264">
        <ele>491</ele>
        <time>2014-10-26T08:11:11Z</time>
      </trkpt>
      <trkpt lat="48.05033" lon="7.2429">
        <ele>488.7</ele>
        <time>2014-10-26T08:11:17Z</time>
      </trkpt>
      <trkpt lat="48.05043" lon="7.24314">
        <ele>486.7</ele>
        <time>2014-10-26T08:11:27Z</time>
      </trkpt>
      <trkpt lat="48.05042" lon="7.24343">
        <ele>489.8</ele>
        <time>2014-10-26T08:11:38Z</time>
      </trkpt>
      <trkpt lat="48.05034" lon="7.24367">
        <ele>495.4</ele>
        <time>2014-10-26T08:11:58Z</time>
      </trkpt>
      <trkpt lat="48.05031" lon="7.24394">
        <ele>494.5</ele>
        <time>2014-10-26T08:12:27Z</time>
      </trkpt>
      <trkpt lat="48.05018" lon="7.24414">
        <ele>496.7</ele>
        <time>2014-10-26T08:12:36Z</time>
      </trkpt>
      <trkpt lat="48.05002" lon="7.2443">
        <ele>501.1</ele>
        <time>2014-10-26T08:12:44Z</time>
      </trkpt>
      <trkpt lat="48.04985" lon="7.24444">
        <ele>506</ele>
        <time>2014-10-26T08:12:53Z</time>
      </trkpt>
      <trkpt lat="48.04967" lon="7.24452">
        <ele>512.3</ele>
        <time>2014-10-26T08:13:03Z</time>
      </trkpt>
      <trkpt lat="48.04949" lon="7.24465">
        <ele>517.8</ele>
        <time>2014-10-26T08:13:14Z</time>
      </trkpt>
      <trkpt lat="48.04932" lon="7.24477">
        <ele>523.6</ele>
        <time>2014-10-26T08:13:24Z</time>
      </trkpt>
      <trkpt lat="48.04917" lon="7.24497">
        <ele>527.8</ele>
        <time>2014-10-26T08:13:32Z</time>
      </trkpt>
      <trkpt lat="48.04902" lon="7.24515">
        <ele>532.8</ele>
        <time>2014-10-26T08:13:41Z</time>
      </trkpt>
      <trkpt lat="48.04889" lon="7.24535">
        <ele>536.8</ele>
        <time>2014-10-26T08:13:54Z</time>
      </trkpt>
      <trkpt lat="48.04887" lon="7.24565">
        <ele>533.5</ele>
        <time>2014-10-26T08:14:04Z</time>
      </trkpt>
      <trkpt lat="48.04847" lon="7.24669">
        <ele>533.3</ele>
        <time>2014-10-26T08:14:51Z</time>
      </trkpt>
      <trkpt lat="48.04831" lon="7.24684">
        <ele>535.4</ele>
        <time>2014-10-26T08:15:03Z</time>
      </trkpt>
      <trkpt lat="48.04815" lon="7.24698">
        <ele>537.2</ele>
        <time>2014-10-26T08:15:19Z</time>
      </trkpt>
      <trkpt lat="48.04798" lon="7.24709">
        <ele>539.7</ele>
        <time>2014-10-26T08:15:32Z</time>
      </trkpt>
      <trkpt lat="48.04779" lon="7.24715">
        <ele>541</ele>
        <time>2014-10-26T08:15:42Z</time>
      </trkpt>
      <trkpt lat="48.04761" lon="7.24717">
        <ele>543.1</ele>
        <time>2014-10-26T08:15:53Z</time>
      </trkpt>
      <trkpt lat="48.04743" lon="7.2472">
        <ele>545</ele>
        <time>2014-10-26T08:16:04Z</time>
      </trkpt>
      <trkpt lat="48.04723" lon="7.2472">
        <ele>548.2</ele>
        <time>2014-10-26T08:16:14Z</time>
      </trkpt>
      <trkpt lat="48.04704" lon="7.2472">
        <ele>551</ele>
        <time>2014-10-26T08:16:26Z</time>
      </trkpt>
      <trkpt lat="48.04687" lon="7.24729">
        <ele>549.6</ele>
        <time>2014-10-26T08:16:36Z</time>
      </trkpt>
      <trkpt lat="48.04668" lon="7.24738">
        <ele>548.5</ele>
        <time>2014-10-26T08:16:49Z</time>
      </trkpt>
      <trkpt lat="48.04617" lon="7.24745">
        <ele>551.7</ele>
        <time>2014-10-26T08:17:16Z</time>
      </trkpt>
      <trkpt lat="48.04597" lon="7.24742">
        <ele>554.1</ele>
        <time>2014-10-26T08:17:27Z</time>
      </trkpt>
      <trkpt lat="48.0458" lon="7.24734">
        <ele>558.5</ele>
        <time>2014-10-26T08:17:37Z</time>
      </trkpt>
      <trkpt lat="48.04562" lon="7.24728">
        <ele>561.9</ele>
        <time>2014-10-26T08:17:51Z</time>
      </trkpt>
      <trkpt lat="48.04543" lon="7.24726">
        <ele>563.9</ele>
        <time>2014-10-26T08:18:07Z</time>
      </trkpt>
      <trkpt lat="48.04523" lon="7.24724">
        <ele>568.6</ele>
        <time>2014-10-26T08:18:16Z</time>
      </trkpt>
      <trkpt lat="48.04504" lon="7.24733">
        <ele>570.4</ele>
        <time>2014-10-26T08:18:25Z</time>
      </trkpt>
      <trkpt lat="48.0449" lon="7.24753">
        <ele>568</ele>
        <time>2014-10-26T08:18:34Z</time>
      </trkpt>
      <trkpt lat="48.04476" lon="7.24771">
        <ele>566.9</ele>
        <time>2014-10-26T08:18:46Z</time>
      </trkpt>
      <trkpt lat="48.0447" lon="7.24796">
        <ele>563.2</ele>
        <time>2014-10-26T08:18:55Z</time>
      </trkpt>
      <trkpt lat="48.04468" lon="7.24825">
        <ele>562.5</ele>
        <time>2014-10-26T08:19:03Z</time>
      </trkpt>
      <trkpt lat="48.04464" lon="7.24854">
        <ele>562.5</ele>
        <time>2014-10-26T08:19:12Z</time>
      </trkpt>
      <trkpt lat="48.04459" lon="7.24882">
        <ele>563.9</ele>
        <time>2014-10-26T08:19:23Z</time>
      </trkpt>
      <trkpt lat="48.04447" lon="7.24903">
        <ele>571.7</ele>
        <time>2014-10-26T08:19:36Z</time>
      </trkpt>
      <trkpt lat="48.0444" lon="7.24929">
        <ele>575.8</ele>
        <time>2014-10-26T08:19:43Z</time>
      </trkpt>
      <trkpt lat="48.04432" lon="7.24954">
        <ele>581.6</ele>
        <time>2014-10-26T08:19:53Z</time>
      </trkpt>
      <trkpt lat="48.04433" lon="7.24986">
        <ele>582.4</ele>
        <time>2014-10-26T08:20:04Z</time>
      </trkpt>
      <trkpt lat="48.04444" lon="7.25009">
        <ele>576.6</ele>
        <time>2014-10-26T08:20:13Z</time>
      </trkpt>
      <trkpt lat="48.04457" lon="7.25031">
        <ele>569.6</ele>
        <time>2014-10-26T08:20:21Z</time>
      </trkpt>
      <trkpt lat="48.04461" lon="7.25058">
        <ele>569.9</ele>
        <time>2014-10-26T08:20:29Z</time>
      </trkpt>
      <trkpt lat="48.04461" lon="7.25086">
        <ele>574</ele>
        <time>2014-10-26T08:20:42Z</time>
      </trkpt>
      <trkpt lat="48.04456" lon="7.25059">
        <ele>572.8</ele>
        <time>2014-10-26T08:22:32Z</time>
      </trkpt>
      <trkpt lat="48.04446" lon="7.25035">
        <ele>576.7</ele>
        <time>2014-10-26T08:22:43Z</time>
      </trkpt>
      <trkpt lat="48.04434" lon="7.25009">
        <ele>582.6</ele>
        <time>2014-10-26T08:22:53Z</time>
      </trkpt>
      <trkpt lat="48.04424" lon="7.24986">
        <ele>587.6</ele>
        <time>2014-10-26T08:23:03Z</time>
      </trkpt>
      <trkpt lat="48.04415" lon="7.24963">
        <ele>592.4</ele>
        <time>2014-10-26T08:23:16Z</time>
      </trkpt>
      <trkpt lat="48.04406" lon="7.24938">
        <ele>597.6</ele>
        <time>2014-10-26T08:23:30Z</time>
      </trkpt>
      <trkpt lat="48.04396" lon="7.24914">
        <ele>603.4</ele>
        <time>2014-10-26T08:23:42Z</time>
      </trkpt>
      <trkpt lat="48.04393" lon="7.24886">
        <ele>604.9</ele>
        <time>2014-10-26T08:23:53Z</time>
      </trkpt>
      <trkpt lat="48.04389" lon="7.24858">
        <ele>606.1</ele>
        <time>2014-10-26T08:24:04Z</time>
      </trkpt>
      <trkpt lat="48.04383" lon="7.24831">
        <ele>607</ele>
        <time>2014-10-26T08:24:14Z</time>
      </trkpt>
      <trkpt lat="48.04378" lon="7.24802">
        <ele>606.4</ele>
        <time>2014-10-26T08:24:24Z</time>
      </trkpt>
      <trkpt lat="48.0437" lon="7.24776">
        <ele>607.7</ele>
        <time>2014-10-26T08:24:33Z</time>
      </trkpt>
      <trkpt lat="48.04364" lon="7.24749">
        <ele>607.7</ele>
        <time>2014-10-26T08:24:45Z</time>
      </trkpt>
      <trkpt lat="48.04359" lon="7.24723">
        <ele>606.7</ele>
        <time>2014-10-26T08:24:55Z</time>
      </trkpt>
      <trkpt lat="48.04354" lon="7.24695">
        <ele>606.6</ele>
        <time>2014-10-26T08:25:07Z</time>
      </trkpt>
      <trkpt lat="48.04345" lon="7.24669">
        <ele>607.1</ele>
        <time>2014-10-26T08:25:19Z</time>
      </trkpt>
      <trkpt lat="48.04335" lon="7.24646">
        <ele>606.1</ele>
        <time>2014-10-26T08:25:31Z</time>
      </trkpt>
      <trkpt lat="48.04323" lon="7.24623">
        <ele>603.3</ele>
        <time>2014-10-26T08:25:42Z</time>
      </trkpt>
      <trkpt lat="48.04305" lon="7.24631">
        <ele>600.4</ele>
        <time>2014-10-26T08:25:59Z</time>
      </trkpt>
      <trkpt lat="48.04313" lon="7.24659">
        <ele>604</ele>
        <time>2014-10-26T08:27:21Z</time>
      </trkpt>
      <trkpt lat="48.04316" lon="7.24688">
        <ele>606.4</ele>
        <time>2014-10-26T08:27:33Z</time>
      </trkpt>
      <trkpt lat="48.04316" lon="7.24717">
        <ele>609.3</ele>
        <time>2014-10-26T08:27:43Z</time>
      </trkpt>
      <trkpt lat="48.04318" lon="7.24744">
        <ele>613.7</ele>
        <time>2014-10-26T08:27:53Z</time>
      </trkpt>
      <trkpt lat="48.04317" lon="7.24772">
        <ele>618.4</ele>
        <time>2014-10-26T08:28:03Z</time>
      </trkpt>
      <trkpt lat="48.04316" lon="7.24802">
        <ele>623.7</ele>
        <time>2014-10-26T08:28:13Z</time>
      </trkpt>
      <trkpt lat="48.04317" lon="7.24829">
        <ele>628</ele>
        <time>2014-10-26T08:28:21Z</time>
      </trkpt>
      <trkpt lat="48.04319" lon="7.24856">
        <ele>631.8</ele>
        <time>2014-10-26T08:28:30Z</time>
      </trkpt>
      <trkpt lat="48.04319" lon="7.24884">
        <ele>635.6</ele>
        <time>2014-10-26T08:28:37Z</time>
      </trkpt>
      <trkpt lat="48.04318" lon="7.24913">
        <ele>639.4</ele>
        <time>2014-10-26T08:28:44Z</time>
      </trkpt>
      <trkpt lat="48.04318" lon="7.24943">
        <ele>642.7</ele>
        <time>2014-10-26T08:28:53Z</time>
      </trkpt>
      <trkpt lat="48.04319" lon="7.24971">
        <ele>644.7</ele>
        <time>2014-10-26T08:29:02Z</time>
      </trkpt>
      <trkpt lat="48.04321" lon="7.25001">
        <ele>646.2</ele>
        <time>2014-10-26T08:29:11Z</time>
      </trkpt>
      <trkpt lat="48.04325" lon="7.2503">
        <ele>646.6</ele>
        <time>2014-10-26T08:29:20Z</time>
      </trkpt>
      <trkpt lat="48.04326" lon="7.25059">
        <ele>647.6</ele>
        <time>2014-10-26T08:29:29Z</time>
      </trkpt>
      <trkpt lat="48.04329" lon="7.25086">
        <ele>647.5</ele>
        <time>2014-10-26T08:29:38Z</time>
      </trkpt>
      <trkpt lat="48.04334" lon="7.25113">
        <ele>646.4</ele>
        <time>2014-10-26T08:29:47Z</time>
      </trkpt>
      <trkpt lat="48.04326" lon="7.25138">
        <ele>651.7</ele>
        <time>2014-10-26T08:29:58Z</time>
      </trkpt>
      <trkpt lat="48.04326" lon="7.25166">
        <ele>653.4</ele>
        <time>2014-10-26T08:30:09Z</time>
      </trkpt>
      <trkpt lat="48.04326" lon="7.25193">
        <ele>654.8</ele>
        <time>2014-10-26T08:30:20Z</time>
      </trkpt>
      <trkpt lat="48.04331" lon="7.25219">
        <ele>654</ele>
        <time>2014-10-26T08:30:29Z</time>
      </trkpt>
      <trkpt lat="48.04339" lon="7.25245">
        <ele>653.1</ele>
        <time>2014-10-26T08:30:38Z</time>
      </trkpt>
      <trkpt lat="48.04343" lon="7.25273">
        <ele>654.6</ele>
        <time>2014-10-26T08:30:52Z</time>
      </trkpt>
      <trkpt lat="48.04349" lon="7.253">
        <ele>656.5</ele>
        <time>2014-10-26T08:31:06Z</time>
      </trkpt>
      <trkpt lat="48.04363" lon="7.25318">
        <ele>655.8</ele>
        <time>2014-10-26T08:31:17Z</time>
      </trkpt>
      <trkpt lat="48.04372" lon="7.25344">
        <ele>658.9</ele>
        <time>2014-10-26T08:31:26Z</time>
      </trkpt>
      <trkpt lat="48.04384" lon="7.25365">
        <ele>659.8</ele>
        <time>2014-10-26T08:31:36Z</time>
      </trkpt>
      <trkpt lat="48.04384" lon="7.25392">
        <ele>663.6</ele>
        <time>2014-10-26T08:31:45Z</time>
      </trkpt>
      <trkpt lat="48.04395" lon="7.25416">
        <ele>662.8</ele>
        <time>2014-10-26T08:31:57Z</time>
      </trkpt>
      <trkpt lat="48.04409" lon="7.25434">
        <ele>661.4</ele>
        <time>2014-10-26T08:32:06Z</time>
      </trkpt>
      <trkpt lat="48.04417" lon="7.25461">
        <ele>663</ele>
        <time>2014-10-26T08:32:22Z</time>
      </trkpt>
      <trkpt lat="48.04417" lon="7.25488">
        <ele>662.9</ele>
        <time>2014-10-26T08:32:30Z</time>
      </trkpt>
      <trkpt lat="48.04424" lon="7.25514">
        <ele>662</ele>
        <time>2014-10-26T08:33:06Z</time>
      </trkpt>
      <trkpt lat="48.04441" lon="7.25501">
        <ele>659.5</ele>
        <time>2014-10-26T08:33:27Z</time>
      </trkpt>
      <trkpt lat="48.0445" lon="7.25474">
        <ele>657.3</ele>
        <time>2014-10-26T08:33:36Z</time>
      </trkpt>
      <trkpt lat="48.04446" lon="7.25447">
        <ele>655.3</ele>
        <time>2014-10-26T08:33:44Z</time>
      </trkpt>
      <trkpt lat="48.04432" lon="7.25429">
        <ele>655.4</ele>
        <time>2014-10-26T08:33:53Z</time>
      </trkpt>
      <trkpt lat="48.04417" lon="7.25413">
        <ele>656.7</ele>
        <time>2014-10-26T08:34:01Z</time>
      </trkpt>
      <trkpt lat="48.04399" lon="7.25404">
        <ele>660.5</ele>
        <time>2014-10-26T08:34:09Z</time>
      </trkpt>
      <trkpt lat="48.0438" lon="7.25399">
        <ele>665.2</ele>
        <time>2014-10-26T08:34:16Z</time>
      </trkpt>
      <trkpt lat="48.04362" lon="7.25386">
        <ele>668</ele>
        <time>2014-10-26T08:34:23Z</time>
      </trkpt>
      <trkpt lat="48.0435" lon="7.25364">
        <ele>667.4</ele>
        <time>2014-10-26T08:34:32Z</time>
      </trkpt>
      <trkpt lat="48.04336" lon="7.25343">
        <ele>667</ele>
        <time>2014-10-26T08:34:40Z</time>
      </trkpt>
      <trkpt lat="48.04321" lon="7.25326">
        <ele>668</ele>
        <time>2014-10-26T08:34:47Z</time>
      </trkpt>
      <trkpt lat="48.04313" lon="7.25301">
        <ele>666.9</ele>
        <time>2014-10-26T08:34:54Z</time>
      </trkpt>
      <trkpt lat="48.04303" lon="7.25278">
        <ele>668.3</ele>
        <time>2014-10-26T08:35:00Z</time>
      </trkpt>
      <trkpt lat="48.0429" lon="7.25254">
        <ele>671.7</ele>
        <time>2014-10-26T08:35:06Z</time>
      </trkpt>
      <trkpt lat="48.04275" lon="7.25232">
        <ele>672.6</ele>
        <time>2014-10-26T08:35:12Z</time>
      </trkpt>
      <trkpt lat="48.04257" lon="7.2522">
        <ele>674</ele>
        <time>2014-10-26T08:35:18Z</time>
      </trkpt>
      <trkpt lat="48.04239" lon="7.25218">
        <ele>675.5</ele>
        <time>2014-10-26T08:35:26Z</time>
      </trkpt>
      <trkpt lat="48.04223" lon="7.25234">
        <ele>676.8</ele>
        <time>2014-10-26T08:35:37Z</time>
      </trkpt>
      <trkpt lat="48.04215" lon="7.25262">
        <ele>677.5</ele>
        <time>2014-10-26T08:35:45Z</time>
      </trkpt>
      <trkpt lat="48.04206" lon="7.25287">
        <ele>678.1</ele>
        <time>2014-10-26T08:35:51Z</time>
      </trkpt>
      <trkpt lat="48.04199" lon="7.25312">
        <ele>678</ele>
        <time>2014-10-26T08:35:56Z</time>
      </trkpt>
      <trkpt lat="48.04188" lon="7.25337">
        <ele>678.4</ele>
        <time>2014-10-26T08:36:01Z</time>
      </trkpt>
      <trkpt lat="48.04177" lon="7.2536">
        <ele>679.3</ele>
        <time>2014-10-26T08:36:06Z</time>
      </trkpt>
      <trkpt lat="48.04163" lon="7.25385">
        <ele>681.2</ele>
        <time>2014-10-26T08:36:12Z</time>
      </trkpt>
      <trkpt lat="48.04148" lon="7.25403">
        <ele>683.7</ele>
        <time>2014-10-26T08:36:21Z</time>
      </trkpt>
      <trkpt lat="48.04139" lon="7.25431">
        <ele>685.6</ele>
        <time>2014-10-26T08:36:29Z</time>
      </trkpt>
      <trkpt lat="48.04134" lon="7.25459">
        <ele>686.9</ele>
        <time>2014-10-26T08:36:37Z</time>
      </trkpt>
      <trkpt lat="48.04125" lon="7.25485">
        <ele>686.7</ele>
        <time>2014-10-26T08:36:45Z</time>
      </trkpt>
      <trkpt lat="48.04122" lon="7.25513">
        <ele>686</ele>
        <time>2014-10-26T08:37:00Z</time>
      </trkpt>
      <trkpt lat="48.04133" lon="7.25534">
        <ele>683.5</ele>
        <time>2014-10-26T08:37:21Z</time>
      </trkpt>
      <trkpt lat="48.04131" lon="7.25525">
        <ele>684.1</ele>
        <time>2014-10-26T08:38:21Z</time>
      </trkpt>
      <trkpt lat="48.04113" lon="7.25525">
        <ele>687.2</ele>
        <time>2014-10-26T08:39:26Z</time>
      </trkpt>
      <trkpt lat="48.04096" lon="7.25533">
        <ele>690.3</ele>
        <time>2014-10-26T08:39:37Z</time>
      </trkpt>
      <trkpt lat="48.04077" lon="7.25533">
        <ele>694</ele>
        <time>2014-10-26T08:39:47Z</time>
      </trkpt>
      <trkpt lat="48.04058" lon="7.25528">
        <ele>698.2</ele>
        <time>2014-10-26T08:39:58Z</time>
      </trkpt>
      <trkpt lat="48.0404" lon="7.25522">
        <ele>702.7</ele>
        <time>2014-10-26T08:40:09Z</time>
      </trkpt>
      <trkpt lat="48.04021" lon="7.25521">
        <ele>705.8</ele>
        <time>2014-10-26T08:40:20Z</time>
      </trkpt>
      <trkpt lat="48.04004" lon="7.25532">
        <ele>707</ele>
        <time>2014-10-26T08:40:31Z</time>
      </trkpt>
      <trkpt lat="48.04002" lon="7.25561">
        <ele>703.9</ele>
        <time>2014-10-26T08:40:37Z</time>
      </trkpt>
      <trkpt lat="48.04006" lon="7.25589">
        <ele>700.2</ele>
        <time>2014-10-26T08:40:44Z</time>
      </trkpt>
      <trkpt lat="48.04008" lon="7.25616">
        <ele>696.9</ele>
        <time>2014-10-26T08:40:52Z</time>
      </trkpt>
      <trkpt lat="48.04004" lon="7.25642">
        <ele>695.8</ele>
        <time>2014-10-26T08:41:01Z</time>
      </trkpt>
      <trkpt lat="48.03999" lon="7.25672">
        <ele>695.5</ele>
        <time>2014-10-26T08:41:07Z</time>
      </trkpt>
      <trkpt lat="48.0399" lon="7.25697">
        <ele>695.4</ele>
        <time>2014-10-26T08:41:18Z</time>
      </trkpt>
      <trkpt lat="48.03971" lon="7.2569">
        <ele>697.8</ele>
        <time>2014-10-26T08:41:27Z</time>
      </trkpt>
      <trkpt lat="48.03959" lon="7.25667">
        <ele>700.4</ele>
        <time>2014-10-26T08:41:36Z</time>
      </trkpt>
      <trkpt lat="48.03945" lon="7.25646">
        <ele>701.7</ele>
        <time>2014-10-26T08:41:48Z</time>
      </trkpt>
      <trkpt lat="48.03929" lon="7.25633">
        <ele>702.7</ele>
        <time>2014-10-26T08:41:56Z</time>
      </trkpt>
      <trkpt lat="48.03918" lon="7.25612">
        <ele>705.5</ele>
        <time>2014-10-26T08:42:02Z</time>
      </trkpt>
      <trkpt lat="48.03905" lon="7.25591">
        <ele>709.1</ele>
        <time>2014-10-26T08:42:15Z</time>
      </trkpt>
      <trkpt lat="48.03886" lon="7.25598">
        <ele>708.6</ele>
        <time>2014-10-26T08:42:20Z</time>
      </trkpt>
      <trkpt lat="48.03866" lon="7.25605">
        <ele>708.1</ele>
        <time>2014-10-26T08:42:24Z</time>
      </trkpt>
      <trkpt lat="48.03846" lon="7.25606">
        <ele>709.1</ele>
        <time>2014-10-26T08:42:30Z</time>
      </trkpt>
      <trkpt lat="48.03827" lon="7.25599">
        <ele>711.5</ele>
        <time>2014-10-26T08:42:37Z</time>
      </trkpt>
      <trkpt lat="48.03809" lon="7.25586">
        <ele>715.3</ele>
        <time>2014-10-26T08:42:45Z</time>
      </trkpt>
      <trkpt lat="48.03794" lon="7.25568">
        <ele>720.1</ele>
        <time>2014-10-26T08:42:57Z</time>
      </trkpt>
      <trkpt lat="48.0378" lon="7.25552">
        <ele>724.6</ele>
        <time>2014-10-26T08:43:14Z</time>
      </trkpt>
      <trkpt lat="48.03763" lon="7.25538">
        <ele>727.7</ele>
        <time>2014-10-26T08:43:25Z</time>
      </trkpt>
      <trkpt lat="48.03748" lon="7.25522">
        <ele>729.2</ele>
        <time>2014-10-26T08:43:31Z</time>
      </trkpt>
      <trkpt lat="48.03731" lon="7.25507">
        <ele>730.2</ele>
        <time>2014-10-26T08:43:35Z</time>
      </trkpt>
      <trkpt lat="48.03713" lon="7.25499">
        <ele>730.5</ele>
        <time>2014-10-26T08:43:39Z</time>
      </trkpt>
      <trkpt lat="48.03698" lon="7.25481">
        <ele>730.7</ele>
        <time>2014-10-26T08:43:46Z</time>
      </trkpt>
      <trkpt lat="48.03688" lon="7.25457">
        <ele>730.8</ele>
        <time>2014-10-26T08:43:57Z</time>
      </trkpt>
      <trkpt lat="48.0368" lon="7.25432">
        <ele>730.5</ele>
        <time>2014-10-26T08:44:05Z</time>
      </trkpt>
      <trkpt lat="48.03675" lon="7.25406">
        <ele>730.2</ele>
        <time>2014-10-26T08:44:12Z</time>
      </trkpt>
      <trkpt lat="48.03671" lon="7.25379">
        <ele>729.8</ele>
        <time>2014-10-26T08:44:20Z</time>
      </trkpt>
      <trkpt lat="48.03667" lon="7.25351">
        <ele>730.1</ele>
        <time>2014-10-26T08:44:31Z</time>
      </trkpt>
      <trkpt lat="48.03663" lon="7.25324">
        <ele>730.4</ele>
        <time>2014-10-26T08:44:41Z</time>
      </trkpt>
      <trkpt lat="48.03652" lon="7.25294">
        <ele>729.9</ele>
        <time>2014-10-26T08:44:50Z</time>
      </trkpt>
      <trkpt lat="48.03639" lon="7.25271">
        <ele>729.1</ele>
        <time>2014-10-26T08:44:58Z</time>
      </trkpt>
      <trkpt lat="48.03626" lon="7.25248">
        <ele>728.2</ele>
        <time>2014-10-26T08:45:05Z</time>
      </trkpt>
      <trkpt lat="48.03617" lon="7.25221">
        <ele>727.1</ele>
        <time>2014-10-26T08:45:12Z</time>
      </trkpt>
      <trkpt lat="48.03615" lon="7.25194">
        <ele>726.6</ele>
        <time>2014-10-26T08:45:20Z</time>
      </trkpt>
      <trkpt lat="48.03617" lon="7.25163">
        <ele>726.6</ele>
        <time>2014-10-26T08:45:27Z</time>
      </trkpt>
      <trkpt lat="48.03615" lon="7.25133">
        <ele>725.5</ele>
        <time>2014-10-26T08:45:34Z</time>
      </trkpt>
      <trkpt lat="48.03617" lon="7.25105">
        <ele>723.8</ele>
        <time>2014-10-26T08:45:44Z</time>
      </trkpt>
      <trkpt lat="48.03621" lon="7.25076">
        <ele>722.1</ele>
        <time>2014-10-26T08:45:54Z</time>
      </trkpt>
      <trkpt lat="48.03637" lon="7.2506">
        <ele>724</ele>
        <time>2014-10-26T08:46:03Z</time>
      </trkpt>
      <trkpt lat="48.03652" lon="7.2504">
        <ele>724.9</ele>
        <time>2014-10-26T08:46:10Z</time>
      </trkpt>
      <trkpt lat="48.03664" lon="7.25016">
        <ele>723.9</ele>
        <time>2014-10-26T08:46:16Z</time>
      </trkpt>
      <trkpt lat="48.03676" lon="7.24995">
        <ele>723.7</ele>
        <time>2014-10-26T08:46:22Z</time>
      </trkpt>
      <trkpt lat="48.03688" lon="7.24972">
        <ele>723.5</ele>
        <time>2014-10-26T08:46:29Z</time>
      </trkpt>
      <trkpt lat="48.03696" lon="7.24947">
        <ele>723.8</ele>
        <time>2014-10-26T08:46:34Z</time>
      </trkpt>
      <trkpt lat="48.03698" lon="7.24917">
        <ele>723.9</ele>
        <time>2014-10-26T08:46:40Z</time>
      </trkpt>
      <trkpt lat="48.03705" lon="7.24889">
        <ele>725.4</ele>
        <time>2014-10-26T08:46:45Z</time>
      </trkpt>
      <trkpt lat="48.03715" lon="7.24863">
        <ele>728.8</ele>
        <time>2014-10-26T08:46:50Z</time>
      </trkpt>
      <trkpt lat="48.03726" lon="7.24839">
        <ele>733.3</ele>
        <time>2014-10-26T08:46:58Z</time>
      </trkpt>
      <trkpt lat="48.03729" lon="7.24809">
        <ele>738</ele>
        <time>2014-10-26T08:47:06Z</time>
      </trkpt>
      <trkpt lat="48.03734" lon="7.24779">
        <ele>741.5</ele>
        <time>2014-10-26T08:47:14Z</time>
      </trkpt>
      <trkpt lat="48.03736" lon="7.24749">
        <ele>743.6</ele>
        <time>2014-10-26T08:47:22Z</time>
      </trkpt>
      <trkpt lat="48.03738" lon="7.24721">
        <ele>745.4</ele>
        <time>2014-10-26T08:47:31Z</time>
      </trkpt>
      <trkpt lat="48.03739" lon="7.24691">
        <ele>745</ele>
        <time>2014-10-26T08:47:40Z</time>
      </trkpt>
      <trkpt lat="48.0374" lon="7.24658">
        <ele>743</ele>
        <time>2014-10-26T08:47:44Z</time>
      </trkpt>
      <trkpt lat="48.03739" lon="7.2463">
        <ele>741.9</ele>
        <time>2014-10-26T08:47:47Z</time>
      </trkpt>
      <trkpt lat="48.03734" lon="7.24599">
        <ele>741.7</ele>
        <time>2014-10-26T08:47:52Z</time>
      </trkpt>
      <trkpt lat="48.0373" lon="7.24573">
        <ele>741.9</ele>
        <time>2014-10-26T08:47:57Z</time>
      </trkpt>
      <trkpt lat="48.03727" lon="7.24546">
        <ele>741.9</ele>
        <time>2014-10-26T08:48:01Z</time>
      </trkpt>
      <trkpt lat="48.03725" lon="7.24515">
        <ele>740.3</ele>
        <time>2014-10-26T08:48:05Z</time>
      </trkpt>
      <trkpt lat="48.03724" lon="7.24483">
        <ele>738</ele>
        <time>2014-10-26T08:48:09Z</time>
      </trkpt>
      <trkpt lat="48.03723" lon="7.24445">
        <ele>735.1</ele>
        <time>2014-10-26T08:48:14Z</time>
      </trkpt>
      <trkpt lat="48.03712" lon="7.24423">
        <ele>738</ele>
        <time>2014-10-26T08:48:24Z</time>
      </trkpt>
      <trkpt lat="48.03697" lon="7.24407">
        <ele>739.4</ele>
        <time>2014-10-26T08:48:39Z</time>
      </trkpt>
      <trkpt lat="48.03686" lon="7.24376">
        <ele>737.2</ele>
        <time>2014-10-26T08:48:46Z</time>
      </trkpt>
      <trkpt lat="48.03678" lon="7.2435">
        <ele>735.1</ele>
        <time>2014-10-26T08:48:50Z</time>
      </trkpt>
      <trkpt lat="48.03667" lon="7.24324">
        <ele>732.5</ele>
        <time>2014-10-26T08:48:55Z</time>
      </trkpt>
      <trkpt lat="48.03658" lon="7.24296">
        <ele>728.9</ele>
        <time>2014-10-26T08:49:00Z</time>
      </trkpt>
      <trkpt lat="48.03648" lon="7.24272">
        <ele>729.5</ele>
        <time>2014-10-26T08:49:04Z</time>
      </trkpt>
      <trkpt lat="48.03635" lon="7.24247">
        <ele>729.6</ele>
        <time>2014-10-26T08:49:09Z</time>
      </trkpt>
      <trkpt lat="48.03621" lon="7.24229">
        <ele>727.4</ele>
        <time>2014-10-26T08:49:17Z</time>
      </trkpt>
      <trkpt lat="48.0363" lon="7.24253">
        <ele>729</ele>
        <time>2014-10-26T08:51:07Z</time>
      </trkpt>
      <trkpt lat="48.03616" lon="7.24235">
        <ele>726.1</ele>
        <time>2014-10-26T08:51:46Z</time>
      </trkpt>
      <trkpt lat="48.03603" lon="7.24216">
        <ele>721.4</ele>
        <time>2014-10-26T08:53:05Z</time>
      </trkpt>
      <trkpt lat="48.03593" lon="7.23931">
        <ele>754.1</ele>
        <time>2014-10-26T09:00:18Z</time>
      </trkpt>
      <trkpt lat="48.03594" lon="7.23904">
        <ele>758</ele>
        <time>2014-10-26T09:00:43Z</time>
      </trkpt>
      <trkpt lat="48.03599" lon="7.23877">
        <ele>763.3</ele>
        <time>2014-10-26T09:01:04Z</time>
      </trkpt>
      <trkpt lat="48.03602" lon="7.2385">
        <ele>767.1</ele>
        <time>2014-10-26T09:01:31Z</time>
      </trkpt>
      <trkpt lat="48.03604" lon="7.23823">
        <ele>770.1</ele>
        <time>2014-10-26T09:02:00Z</time>
      </trkpt>
      <trkpt lat="48.0361" lon="7.23797">
        <ele>774.2</ele>
        <time>2014-10-26T09:02:18Z</time>
      </trkpt>
      <trkpt lat="48.03616" lon="7.23771">
        <ele>779.4</ele>
        <time>2014-10-26T09:02:38Z</time>
      </trkpt>
      <trkpt lat="48.03624" lon="7.23747">
        <ele>785.1</ele>
        <time>2014-10-26T09:02:51Z</time>
      </trkpt>
      <trkpt lat="48.03624" lon="7.2372">
        <ele>788.4</ele>
        <time>2014-10-26T09:03:07Z</time>
      </trkpt>
      <trkpt lat="48.03628" lon="7.23693">
        <ele>792.3</ele>
        <time>2014-10-26T09:03:24Z</time>
      </trkpt>
      <trkpt lat="48.03628" lon="7.23665">
        <ele>794.8</ele>
        <time>2014-10-26T09:03:36Z</time>
      </trkpt>
      <trkpt lat="48.03627" lon="7.23638">
        <ele>797.1</ele>
        <time>2014-10-26T09:03:51Z</time>
      </trkpt>
      <trkpt lat="48.03637" lon="7.23614">
        <ele>800.9</ele>
        <time>2014-10-26T09:04:10Z</time>
      </trkpt>
      <trkpt lat="48.03649" lon="7.23593">
        <ele>803.8</ele>
        <time>2014-10-26T09:04:24Z</time>
      </trkpt>
      <trkpt lat="48.03652" lon="7.23565">
        <ele>806</ele>
        <time>2014-10-26T09:04:33Z</time>
      </trkpt>
      <trkpt lat="48.03647" lon="7.23537">
        <ele>807.9</ele>
        <time>2014-10-26T09:04:44Z</time>
      </trkpt>
      <trkpt lat="48.03634" lon="7.23518">
        <ele>808.4</ele>
        <time>2014-10-26T09:04:57Z</time>
      </trkpt>
      <trkpt lat="48.0362" lon="7.235">
        <ele>810.1</ele>
        <time>2014-10-26T09:05:08Z</time>
      </trkpt>
      <trkpt lat="48.03602" lon="7.23496">
        <ele>814.5</ele>
        <time>2014-10-26T09:05:19Z</time>
      </trkpt>
      <trkpt lat="48.03584" lon="7.23488">
        <ele>819.8</ele>
        <time>2014-10-26T09:05:34Z</time>
      </trkpt>
      <trkpt lat="48.03568" lon="7.23475">
        <ele>826.1</ele>
        <time>2014-10-26T09:05:49Z</time>
      </trkpt>
      <trkpt lat="48.03549" lon="7.23467">
        <ele>833.6</ele>
        <time>2014-10-26T09:06:03Z</time>
      </trkpt>
      <trkpt lat="48.03531" lon="7.23458">
        <ele>840.5</ele>
        <time>2014-10-26T09:06:21Z</time>
      </trkpt>
      <trkpt lat="48.03513" lon="7.23453">
        <ele>845</ele>
        <time>2014-10-26T09:06:40Z</time>
      </trkpt>
      <trkpt lat="48.03494" lon="7.23451">
        <ele>850</ele>
        <time>2014-10-26T09:07:01Z</time>
      </trkpt>
      <trkpt lat="48.03476" lon="7.23451">
        <ele>854.6</ele>
        <time>2014-10-26T09:07:14Z</time>
      </trkpt>
      <trkpt lat="48.03458" lon="7.23447">
        <ele>859.5</ele>
        <time>2014-10-26T09:07:31Z</time>
      </trkpt>
      <trkpt lat="48.03448" lon="7.23424">
        <ele>863.6</ele>
        <time>2014-10-26T09:08:41Z</time>
      </trkpt>
      <trkpt lat="48.0343" lon="7.23425">
        <ele>865.2</ele>
        <time>2014-10-26T09:09:04Z</time>
      </trkpt>
      <trkpt lat="48.03411" lon="7.23423">
        <ele>867.4</ele>
        <time>2014-10-26T09:09:36Z</time>
      </trkpt>
      <trkpt lat="48.03394" lon="7.23418">
        <ele>870.6</ele>
        <time>2014-10-26T09:09:53Z</time>
      </trkpt>
      <trkpt lat="48.03409" lon="7.23403">
        <ele>872.1</ele>
        <time>2014-10-26T09:10:32Z</time>
      </trkpt>
      <trkpt lat="48.03425" lon="7.23387">
        <ele>873.1</ele>
        <time>2014-10-26T09:10:48Z</time>
      </trkpt>
      <trkpt lat="48.0344" lon="7.23369">
        <ele>872.1</ele>
        <time>2014-10-26T09:11:12Z</time>
      </trkpt>
      <trkpt lat="48.03425" lon="7.23353">
        <ele>874</ele>
        <time>2014-10-26T09:11:57Z</time>
      </trkpt>
      <trkpt lat="48.03416" lon="7.23329">
        <ele>874.3</ele>
        <time>2014-10-26T09:12:25Z</time>
      </trkpt>
      <trkpt lat="48.034" lon="7.23317">
        <ele>877.3</ele>
        <time>2014-10-26T09:13:02Z</time>
      </trkpt>
      <trkpt lat="48.03383" lon="7.23306">
        <ele>880.6</ele>
        <time>2014-10-26T09:13:16Z</time>
      </trkpt>
      <trkpt lat="48.03364" lon="7.233">
        <ele>881.2</ele>
        <time>2014-10-26T09:13:55Z</time>
      </trkpt>
      <trkpt lat="48.03348" lon="7.23286">
        <ele>877.2</ele>
        <time>2014-10-26T09:14:37Z</time>
      </trkpt>
      <trkpt lat="48.0333" lon="7.23284">
        <ele>874.7</ele>
        <time>2014-10-26T09:15:20Z</time>
      </trkpt>
      <trkpt lat="48.03313" lon="7.23292">
        <ele>875.3</ele>
        <time>2014-10-26T09:16:05Z</time>
      </trkpt>
      <trkpt lat="48.03298" lon="7.23308">
        <ele>875.3</ele>
        <time>2014-10-26T09:20:43Z</time>
      </trkpt>
      <trkpt lat="48.03279" lon="7.23305">
        <ele>872.3</ele>
        <time>2014-10-26T09:20:54Z</time>
      </trkpt>
      <trkpt lat="48.03261" lon="7.23304">
        <ele>869.1</ele>
        <time>2014-10-26T09:21:05Z</time>
      </trkpt>
      <trkpt lat="48.03243" lon="7.23301">
        <ele>865.7</ele>
        <time>2014-10-26T09:21:15Z</time>
      </trkpt>
      <trkpt lat="48.03223" lon="7.23303">
        <ele>862.5</ele>
        <time>2014-10-26T09:21:28Z</time>
      </trkpt>
      <trkpt lat="48.03203" lon="7.233">
        <ele>857.8</ele>
        <time>2014-10-26T09:21:34Z</time>
      </trkpt>
      <trkpt lat="48.03185" lon="7.23301">
        <ele>850.7</ele>
        <time>2014-10-26T09:21:40Z</time>
      </trkpt>
      <trkpt lat="48.03165" lon="7.23306">
        <ele>843.4</ele>
        <time>2014-10-26T09:21:49Z</time>
      </trkpt>
      <trkpt lat="48.0315" lon="7.23289">
        <ele>835.4</ele>
        <time>2014-10-26T09:22:05Z</time>
      </trkpt>
      <trkpt lat="48.03145" lon="7.23256">
        <ele>824.4</ele>
        <time>2014-10-26T09:25:34Z</time>
      </trkpt>
      <trkpt lat="48.03129" lon="7.23274">
        <ele>823.3</ele>
        <time>2014-10-26T09:25:40Z</time>
      </trkpt>
      <trkpt lat="48.0311" lon="7.23273">
        <ele>814.9</ele>
        <time>2014-10-26T09:26:13Z</time>
      </trkpt>
      <trkpt lat="48.03094" lon="7.23285">
        <ele>810.7</ele>
        <time>2014-10-26T09:26:18Z</time>
      </trkpt>
      <trkpt lat="48.03078" lon="7.23304">
        <ele>807</ele>
        <time>2014-10-26T09:26:23Z</time>
      </trkpt>
      <trkpt lat="48.03066" lon="7.23324">
        <ele>803.2</ele>
        <time>2014-10-26T09:26:33Z</time>
      </trkpt>
      <trkpt lat="48.03066" lon="7.23294">
        <ele>800.8</ele>
        <time>2014-10-26T09:27:03Z</time>
      </trkpt>
      <trkpt lat="48.03073" lon="7.23269">
        <ele>798.1</ele>
        <time>2014-10-26T09:27:08Z</time>
      </trkpt>
      <trkpt lat="48.03085" lon="7.23246">
        <ele>797.2</ele>
        <time>2014-10-26T09:27:14Z</time>
      </trkpt>
      <trkpt lat="48.03065" lon="7.2325">
        <ele>789.6</ele>
        <time>2014-10-26T09:27:24Z</time>
      </trkpt>
      <trkpt lat="48.03047" lon="7.23262">
        <ele>784.8</ele>
        <time>2014-10-26T09:27:29Z</time>
      </trkpt>
      <trkpt lat="48.03029" lon="7.23277">
        <ele>779.8</ele>
        <time>2014-10-26T09:27:34Z</time>
      </trkpt>
      <trkpt lat="48.03018" lon="7.23299">
        <ele>777.5</ele>
        <time>2014-10-26T09:27:41Z</time>
      </trkpt>
      <trkpt lat="48.03029" lon="7.23275">
        <ele>779.1</ele>
        <time>2014-10-26T09:28:01Z</time>
      </trkpt>
      <trkpt lat="48.03009" lon="7.23283">
        <ele>770.5</ele>
        <time>2014-10-26T09:28:08Z</time>
      </trkpt>
      <trkpt lat="48.02995" lon="7.23303">
        <ele>764.7</ele>
        <time>2014-10-26T09:28:13Z</time>
      </trkpt>
      <trkpt lat="48.02994" lon="7.23271">
        <ele>760.2</ele>
        <time>2014-10-26T09:28:29Z</time>
      </trkpt>
      <trkpt lat="48.03003" lon="7.23246">
        <ele>759.8</ele>
        <time>2014-10-26T09:28:33Z</time>
      </trkpt>
      <trkpt lat="48.03013" lon="7.23224">
        <ele>760.1</ele>
        <time>2014-10-26T09:28:43Z</time>
      </trkpt>
      <trkpt lat="48.02993" lon="7.23232">
        <ele>752.8</ele>
        <time>2014-10-26T09:28:52Z</time>
      </trkpt>
      <trkpt lat="48.02974" lon="7.23243">
        <ele>745.5</ele>
        <time>2014-10-26T09:28:57Z</time>
      </trkpt>
      <trkpt lat="48.02961" lon="7.23264">
        <ele>741.7</ele>
        <time>2014-10-26T09:29:03Z</time>
      </trkpt>
      <trkpt lat="48.02958" lon="7.23293">
        <ele>743.6</ele>
        <time>2014-10-26T09:29:07Z</time>
      </trkpt>
      <trkpt lat="48.02958" lon="7.23326">
        <ele>745.1</ele>
        <time>2014-10-26T09:29:11Z</time>
      </trkpt>
      <trkpt lat="48.02951" lon="7.23358">
        <ele>742.9</ele>
        <time>2014-10-26T09:29:15Z</time>
      </trkpt>
      <trkpt lat="48.0295" lon="7.23386">
        <ele>743.8</ele>
        <time>2014-10-26T09:29:19Z</time>
      </trkpt>
      <trkpt lat="48.02943" lon="7.23412">
        <ele>742.8</ele>
        <time>2014-10-26T09:29:24Z</time>
      </trkpt>
      <trkpt lat="48.02934" lon="7.23437">
        <ele>741.2</ele>
        <time>2014-10-26T09:29:28Z</time>
      </trkpt>
      <trkpt lat="48.02933" lon="7.23468">
        <ele>743</ele>
        <time>2014-10-26T09:29:33Z</time>
      </trkpt>
      <trkpt lat="48.02933" lon="7.23497">
        <ele>743.8</ele>
        <time>2014-10-26T09:29:39Z</time>
      </trkpt>
      <trkpt lat="48.02915" lon="7.2351">
        <ele>739.8</ele>
        <time>2014-10-26T09:29:46Z</time>
      </trkpt>
      <trkpt lat="48.02894" lon="7.23506">
        <ele>734.4</ele>
        <time>2014-10-26T09:29:52Z</time>
      </trkpt>
      <trkpt lat="48.02876" lon="7.23509">
        <ele>730.3</ele>
        <time>2014-10-26T09:30:02Z</time>
      </trkpt>
      <trkpt lat="48.02861" lon="7.23525">
        <ele>729.1</ele>
        <time>2014-10-26T09:30:40Z</time>
      </trkpt>
      <trkpt lat="48.02841" lon="7.23533">
        <ele>725.9</ele>
        <time>2014-10-26T09:30:45Z</time>
      </trkpt>
      <trkpt lat="48.02821" lon="7.23534">
        <ele>722.2</ele>
        <time>2014-10-26T09:30:50Z</time>
      </trkpt>
      <trkpt lat="48.02802" lon="7.23541">
        <ele>719.1</ele>
        <time>2014-10-26T09:30:56Z</time>
      </trkpt>
      <trkpt lat="48.02782" lon="7.23546">
        <ele>717.1</ele>
        <time>2014-10-26T09:30:59Z</time>
      </trkpt>
      <trkpt lat="48.02755" lon="7.23553">
        <ele>717.2</ele>
        <time>2014-10-26T09:31:02Z</time>
      </trkpt>
      <trkpt lat="48.02731" lon="7.23554">
        <ele>717.5</ele>
        <time>2014-10-26T09:31:05Z</time>
      </trkpt>
      <trkpt lat="48.02709" lon="7.23555">
        <ele>717.7</ele>
        <time>2014-10-26T09:31:14Z</time>
      </trkpt>
      <trkpt lat="48.02691" lon="7.23558">
        <ele>717.9</ele>
        <time>2014-10-26T09:31:32Z</time>
      </trkpt>
      <trkpt lat="48.02674" lon="7.23567">
        <ele>717.9</ele>
        <time>2014-10-26T09:31:43Z</time>
      </trkpt>
      <trkpt lat="48.02655" lon="7.23577">
        <ele>718.6</ele>
        <time>2014-10-26T09:31:53Z</time>
      </trkpt>
      <trkpt lat="48.02639" lon="7.23591">
        <ele>719.7</ele>
        <time>2014-10-26T09:32:01Z</time>
      </trkpt>
      <trkpt lat="48.02621" lon="7.23598">
        <ele>721.8</ele>
        <time>2014-10-26T09:32:10Z</time>
      </trkpt>
      <trkpt lat="48.02601" lon="7.23601">
        <ele>725.6</ele>
        <time>2014-10-26T09:32:20Z</time>
      </trkpt>
      <trkpt lat="48.02581" lon="7.23599">
        <ele>728.9</ele>
        <time>2014-10-26T09:32:33Z</time>
      </trkpt>
      <trkpt lat="48.02564" lon="7.23587">
        <ele>730.2</ele>
        <time>2014-10-26T09:32:44Z</time>
      </trkpt>
      <trkpt lat="48.02546" lon="7.23576">
        <ele>731</ele>
        <time>2014-10-26T09:32:56Z</time>
      </trkpt>
      <trkpt lat="48.02527" lon="7.23573">
        <ele>733.8</ele>
        <time>2014-10-26T09:33:06Z</time>
      </trkpt>
      <trkpt lat="48.02509" lon="7.23575">
        <ele>737.8</ele>
        <time>2014-10-26T09:33:34Z</time>
      </trkpt>
      <trkpt lat="48.02491" lon="7.23574">
        <ele>741.1</ele>
        <time>2014-10-26T09:34:01Z</time>
      </trkpt>
      <trkpt lat="48.02474" lon="7.23565">
        <ele>742.3</ele>
        <time>2014-10-26T09:34:27Z</time>
      </trkpt>
      <trkpt lat="48.0246" lon="7.23547">
        <ele>740.2</ele>
        <time>2014-10-26T09:34:45Z</time>
      </trkpt>
      <trkpt lat="48.02443" lon="7.23537">
        <ele>739.3</ele>
        <time>2014-10-26T09:35:03Z</time>
      </trkpt>
      <trkpt lat="48.02423" lon="7.23528">
        <ele>739</ele>
        <time>2014-10-26T09:35:15Z</time>
      </trkpt>
      <trkpt lat="48.02403" lon="7.23532">
        <ele>741.7</ele>
        <time>2014-10-26T09:35:20Z</time>
      </trkpt>
      <trkpt lat="48.02381" lon="7.23528">
        <ele>742.9</ele>
        <time>2014-10-26T09:35:24Z</time>
      </trkpt>
      <trkpt lat="48.02363" lon="7.23532">
        <ele>745.3</ele>
        <time>2014-10-26T09:35:29Z</time>
      </trkpt>
      <trkpt lat="48.02344" lon="7.23533">
        <ele>747.1</ele>
        <time>2014-10-26T09:35:34Z</time>
      </trkpt>
      <trkpt lat="48.02325" lon="7.23526">
        <ele>748.2</ele>
        <time>2014-10-26T09:35:39Z</time>
      </trkpt>
      <trkpt lat="48.02307" lon="7.23515">
        <ele>749.5</ele>
        <time>2014-10-26T09:35:45Z</time>
      </trkpt>
      <trkpt lat="48.02289" lon="7.23508">
        <ele>750.9</ele>
        <time>2014-10-26T09:35:53Z</time>
      </trkpt>
      <trkpt lat="48.0227" lon="7.23505">
        <ele>748.6</ele>
        <time>2014-10-26T09:36:02Z</time>
      </trkpt>
      <trkpt lat="48.02278" lon="7.2348">
        <ele>748.9</ele>
        <time>2014-10-26T09:36:48Z</time>
      </trkpt>
      <trkpt lat="48.02271" lon="7.23453">
        <ele>748.2</ele>
        <time>2014-10-26T09:36:55Z</time>
      </trkpt>
      <trkpt lat="48.02254" lon="7.23435">
        <ele>749.1</ele>
        <time>2014-10-26T09:37:04Z</time>
      </trkpt>
      <trkpt lat="48.02237" lon="7.23424">
        <ele>749.6</ele>
        <time>2014-10-26T09:38:29Z</time>
      </trkpt>
      <trkpt lat="48.02239" lon="7.23397">
        <ele>754.5</ele>
        <time>2014-10-26T09:38:53Z</time>
      </trkpt>
      <trkpt lat="48.02251" lon="7.23373">
        <ele>758.8</ele>
        <time>2014-10-26T09:39:02Z</time>
      </trkpt>
      <trkpt lat="48.02261" lon="7.23349">
        <ele>762.7</ele>
        <time>2014-10-26T09:39:11Z</time>
      </trkpt>
      <trkpt lat="48.02267" lon="7.23321">
        <ele>766.7</ele>
        <time>2014-10-26T09:39:19Z</time>
      </trkpt>
      <trkpt lat="48.02271" lon="7.23294">
        <ele>770.4</ele>
        <time>2014-10-26T09:39:25Z</time>
      </trkpt>
      <trkpt lat="48.02274" lon="7.23263">
        <ele>768.2</ele>
        <time>2014-10-26T09:39:32Z</time>
      </trkpt>
      <trkpt lat="48.02275" lon="7.23232">
        <ele>765.6</ele>
        <time>2014-10-26T09:39:39Z</time>
      </trkpt>
      <trkpt lat="48.02268" lon="7.23205">
        <ele>764.5</ele>
        <time>2014-10-26T09:39:45Z</time>
      </trkpt>
      <trkpt lat="48.02256" lon="7.2318">
        <ele>762.5</ele>
        <time>2014-10-26T09:39:51Z</time>
      </trkpt>
      <trkpt lat="48.02247" lon="7.23154">
        <ele>760.2</ele>
        <time>2014-10-26T09:39:58Z</time>
      </trkpt>
      <trkpt lat="48.02231" lon="7.23134">
        <ele>760.3</ele>
        <time>2014-10-26T09:40:06Z</time>
      </trkpt>
      <trkpt lat="48.02211" lon="7.23115">
        <ele>761.8</ele>
        <time>2014-10-26T09:40:14Z</time>
      </trkpt>
      <trkpt lat="48.02194" lon="7.23102">
        <ele>762.9</ele>
        <time>2014-10-26T09:40:20Z</time>
      </trkpt>
      <trkpt lat="48.0218" lon="7.23085">
        <ele>763.5</ele>
        <time>2014-10-26T09:40:25Z</time>
      </trkpt>
      <trkpt lat="48.02166" lon="7.23067">
        <ele>764.7</ele>
        <time>2014-10-26T09:40:30Z</time>
      </trkpt>
      <trkpt lat="48.02151" lon="7.23047">
        <ele>766.5</ele>
        <time>2014-10-26T09:40:35Z</time>
      </trkpt>
      <trkpt lat="48.02142" lon="7.23017">
        <ele>767.5</ele>
        <time>2014-10-26T09:40:41Z</time>
      </trkpt>
      <trkpt lat="48.02132" lon="7.22989">
        <ele>769</ele>
        <time>2014-10-26T09:40:46Z</time>
      </trkpt>
      <trkpt lat="48.02124" lon="7.22965">
        <ele>770.3</ele>
        <time>2014-10-26T09:40:50Z</time>
      </trkpt>
      <trkpt lat="48.02116" lon="7.22938">
        <ele>770.1</ele>
        <time>2014-10-26T09:40:55Z</time>
      </trkpt>
      <trkpt lat="48.02114" lon="7.2291">
        <ele>769.2</ele>
        <time>2014-10-26T09:41:00Z</time>
      </trkpt>
      <trkpt lat="48.02111" lon="7.22882">
        <ele>768.4</ele>
        <time>2014-10-26T09:41:06Z</time>
      </trkpt>
      <trkpt lat="48.02101" lon="7.22856">
        <ele>769.5</ele>
        <time>2014-10-26T09:41:12Z</time>
      </trkpt>
      <trkpt lat="48.02093" lon="7.22831">
        <ele>770</ele>
        <time>2014-10-26T09:41:18Z</time>
      </trkpt>
      <trkpt lat="48.02083" lon="7.22806">
        <ele>771.1</ele>
        <time>2014-10-26T09:41:24Z</time>
      </trkpt>
      <trkpt lat="48.02071" lon="7.2278">
        <ele>772.6</ele>
        <time>2014-10-26T09:41:30Z</time>
      </trkpt>
      <trkpt lat="48.02057" lon="7.22757">
        <ele>774.3</ele>
        <time>2014-10-26T09:41:36Z</time>
      </trkpt>
      <trkpt lat="48.02045" lon="7.22733">
        <ele>775.7</ele>
        <time>2014-10-26T09:41:42Z</time>
      </trkpt>
      <trkpt lat="48.02036" lon="7.22708">
        <ele>775.7</ele>
        <time>2014-10-26T09:41:48Z</time>
      </trkpt>
      <trkpt lat="48.02029" lon="7.22683">
        <ele>778.4</ele>
        <time>2014-10-26T09:41:53Z</time>
      </trkpt>
      <trkpt lat="48.02022" lon="7.22656">
        <ele>781.5</ele>
        <time>2014-10-26T09:41:59Z</time>
      </trkpt>
      <trkpt lat="48.02018" lon="7.22628">
        <ele>784.2</ele>
        <time>2014-10-26T09:42:04Z</time>
      </trkpt>
      <trkpt lat="48.02017" lon="7.226">
        <ele>788.3</ele>
        <time>2014-10-26T09:42:09Z</time>
      </trkpt>
      <trkpt lat="48.02015" lon="7.22572">
        <ele>792.7</ele>
        <time>2014-10-26T09:42:15Z</time>
      </trkpt>
      <trkpt lat="48.02014" lon="7.22545">
        <ele>796.9</ele>
        <time>2014-10-26T09:42:20Z</time>
      </trkpt>
      <trkpt lat="48.02013" lon="7.22514">
        <ele>800.9</ele>
        <time>2014-10-26T09:42:26Z</time>
      </trkpt>
      <trkpt lat="48.02015" lon="7.22485">
        <ele>804.6</ele>
        <time>2014-10-26T09:42:32Z</time>
      </trkpt>
      <trkpt lat="48.02025" lon="7.2246">
        <ele>808.6</ele>
        <time>2014-10-26T09:42:38Z</time>
      </trkpt>
      <trkpt lat="48.02043" lon="7.22443">
        <ele>811.4</ele>
        <time>2014-10-26T09:42:43Z</time>
      </trkpt>
      <trkpt lat="48.02058" lon="7.22426">
        <ele>810.1</ele>
        <time>2014-10-26T09:42:47Z</time>
      </trkpt>
      <trkpt lat="48.02073" lon="7.22409">
        <ele>810</ele>
        <time>2014-10-26T09:42:52Z</time>
      </trkpt>
      <trkpt lat="48.02087" lon="7.22389">
        <ele>811.5</ele>
        <time>2014-10-26T09:42:57Z</time>
      </trkpt>
      <trkpt lat="48.02102" lon="7.22372">
        <ele>812.5</ele>
        <time>2014-10-26T09:43:02Z</time>
      </trkpt>
      <trkpt lat="48.02121" lon="7.22357">
        <ele>810.5</ele>
        <time>2014-10-26T09:43:07Z</time>
      </trkpt>
      <trkpt lat="48.02137" lon="7.22342">
        <ele>805</ele>
        <time>2014-10-26T09:43:12Z</time>
      </trkpt>
      <trkpt lat="48.0215" lon="7.22322">
        <ele>800</ele>
        <time>2014-10-26T09:43:17Z</time>
      </trkpt>
      <trkpt lat="48.02155" lon="7.22293">
        <ele>798.9</ele>
        <time>2014-10-26T09:43:22Z</time>
      </trkpt>
      <trkpt lat="48.02145" lon="7.22265">
        <ele>801.1</ele>
        <time>2014-10-26T09:43:27Z</time>
      </trkpt>
      <trkpt lat="48.0213" lon="7.22242">
        <ele>806.4</ele>
        <time>2014-10-26T09:43:32Z</time>
      </trkpt>
      <trkpt lat="48.02117" lon="7.22217">
        <ele>808.7</ele>
        <time>2014-10-26T09:43:38Z</time>
      </trkpt>
      <trkpt lat="48.02101" lon="7.22196">
        <ele>811</ele>
        <time>2014-10-26T09:43:44Z</time>
      </trkpt>
      <trkpt lat="48.02088" lon="7.22171">
        <ele>813.2</ele>
        <time>2014-10-26T09:43:49Z</time>
      </trkpt>
      <trkpt lat="48.02081" lon="7.22145">
        <ele>814.3</ele>
        <time>2014-10-26T09:43:54Z</time>
      </trkpt>
      <trkpt lat="48.02076" lon="7.22112">
        <ele>817</ele>
        <time>2014-10-26T09:43:59Z</time>
      </trkpt>
      <trkpt lat="48.02079" lon="7.22085">
        <ele>820</ele>
        <time>2014-10-26T09:44:05Z</time>
      </trkpt>
      <trkpt lat="48.02081" lon="7.22056">
        <ele>823.2</ele>
        <time>2014-10-26T09:44:12Z</time>
      </trkpt>
      <trkpt lat="48.02082" lon="7.22024">
        <ele>828.4</ele>
        <time>2014-10-26T09:44:17Z</time>
      </trkpt>
      <trkpt lat="48.02088" lon="7.21998">
        <ele>831.7</ele>
        <time>2014-10-26T09:44:23Z</time>
      </trkpt>
      <trkpt lat="48.021" lon="7.21977">
        <ele>832.5</ele>
        <time>2014-10-26T09:44:29Z</time>
      </trkpt>
      <trkpt lat="48.02114" lon="7.21958">
        <ele>832.2</ele>
        <time>2014-10-26T09:44:33Z</time>
      </trkpt>
      <trkpt lat="48.02133" lon="7.21938">
        <ele>829</ele>
        <time>2014-10-26T09:44:37Z</time>
      </trkpt>
      <trkpt lat="48.0215" lon="7.21914">
        <ele>824.8</ele>
        <time>2014-10-26T09:44:41Z</time>
      </trkpt>
      <trkpt lat="48.02167" lon="7.21891">
        <ele>820.7</ele>
        <time>2014-10-26T09:44:45Z</time>
      </trkpt>
      <trkpt lat="48.02182" lon="7.21868">
        <ele>817.4</ele>
        <time>2014-10-26T09:44:50Z</time>
      </trkpt>
      <trkpt lat="48.02201" lon="7.2185">
        <ele>810</ele>
        <time>2014-10-26T09:44:55Z</time>
      </trkpt>
      <trkpt lat="48.02218" lon="7.21841">
        <ele>803.4</ele>
        <time>2014-10-26T09:44:58Z</time>
      </trkpt>
      <trkpt lat="48.02239" lon="7.21832">
        <ele>795.2</ele>
        <time>2014-10-26T09:45:02Z</time>
      </trkpt>
      <trkpt lat="48.02258" lon="7.21812">
        <ele>788</ele>
        <time>2014-10-26T09:45:07Z</time>
      </trkpt>
      <trkpt lat="48.02258" lon="7.21783">
        <ele>788.8</ele>
        <time>2014-10-26T09:45:11Z</time>
      </trkpt>
      <trkpt lat="48.02251" lon="7.2175">
        <ele>789.9</ele>
        <time>2014-10-26T09:45:15Z</time>
      </trkpt>
      <trkpt lat="48.02245" lon="7.21719">
        <ele>790.9</ele>
        <time>2014-10-26T09:45:19Z</time>
      </trkpt>
      <trkpt lat="48.0224" lon="7.21692">
        <ele>790.3</ele>
        <time>2014-10-26T09:45:22Z</time>
      </trkpt>
      <trkpt lat="48.02232" lon="7.21659">
        <ele>789.2</ele>
        <time>2014-10-26T09:45:25Z</time>
      </trkpt>
      <trkpt lat="48.02222" lon="7.21629">
        <ele>788.5</ele>
        <time>2014-10-26T09:45:28Z</time>
      </trkpt>
      <trkpt lat="48.02214" lon="7.21597">
        <ele>786.9</ele>
        <time>2014-10-26T09:45:31Z</time>
      </trkpt>
      <trkpt lat="48.02203" lon="7.21552">
        <ele>782.1</ele>
        <time>2014-10-26T09:45:35Z</time>
      </trkpt>
      <trkpt lat="48.02191" lon="7.21502">
        <ele>774.5</ele>
        <time>2014-10-26T09:45:40Z</time>
      </trkpt>
      <trkpt lat="48.02184" lon="7.21476">
        <ele>769.7</ele>
        <time>2014-10-26T09:45:43Z</time>
      </trkpt>
      <trkpt lat="48.02181" lon="7.21449">
        <ele>765.3</ele>
        <time>2014-10-26T09:45:46Z</time>
      </trkpt>
      <trkpt lat="48.02179" lon="7.21422">
        <ele>762.7</ele>
        <time>2014-10-26T09:45:51Z</time>
      </trkpt>
      <trkpt lat="48.02183" lon="7.21394">
        <ele>761.6</ele>
        <time>2014-10-26T09:46:35Z</time>
      </trkpt>
      <trkpt lat="48.02204" lon="7.21391">
        <ele>767.2</ele>
        <time>2014-10-26T09:47:08Z</time>
      </trkpt>
      <trkpt lat="48.0222" lon="7.2137">
        <ele>766.7</ele>
        <time>2014-10-26T09:47:42Z</time>
      </trkpt>
      <trkpt lat="48.0223" lon="7.21345">
        <ele>761</ele>
        <time>2014-10-26T09:47:49Z</time>
      </trkpt>
      <trkpt lat="48.0223" lon="7.21318">
        <ele>754.9</ele>
        <time>2014-10-26T09:47:59Z</time>
      </trkpt>
      <trkpt lat="48.02222" lon="7.21293">
        <ele>748.4</ele>
        <time>2014-10-26T09:48:07Z</time>
      </trkpt>
      <trkpt lat="48.02203" lon="7.21303">
        <ele>748.4</ele>
        <time>2014-10-26T09:48:26Z</time>
      </trkpt>
      <trkpt lat="48.0221" lon="7.21328">
        <ele>756.2</ele>
        <time>2014-10-26T09:49:36Z</time>
      </trkpt>
      <trkpt lat="48.0221" lon="7.21328">
        <ele>756.2</ele>
        <time>2014-10-26T09:50:03Z</time>
      </trkpt>
      <trkpt lat="48.02201" lon="7.21351">
        <ele>759.9</ele>
        <time>2014-10-26T09:50:36Z</time>
      </trkpt>
      <trkpt lat="48.02183" lon="7.21345">
        <ele>753.2</ele>
        <time>2014-10-26T09:51:36Z</time>
      </trkpt>
      <trkpt lat="48.02203" lon="7.21373">
        <ele>765.9</ele>
        <time>2014-10-26T09:52:25Z</time>
      </trkpt>
      <trkpt lat="48.02206" lon="7.21347">
        <ele>760.2</ele>
        <time>2014-10-26T09:53:27Z</time>
      </trkpt>
      <trkpt lat="48.02223" lon="7.21339">
        <ele>759.4</ele>
        <time>2014-10-26T09:57:08Z</time>
      </trkpt>
      <trkpt lat="48.02207" lon="7.21325">
        <ele>755.2</ele>
        <time>2014-10-26T09:59:11Z</time>
      </trkpt>
      <trkpt lat="48.0221" lon="7.21298">
        <ele>748.8</ele>
        <time>2014-10-26T09:59:56Z</time>
      </trkpt>
      <trkpt lat="48.02229" lon="7.21308">
        <ele>752.5</ele>
        <time>2014-10-26T10:00:12Z</time>
      </trkpt>
      <trkpt lat="48.02247" lon="7.21303">
        <ele>752.5</ele>
        <time>2014-10-26T10:00:22Z</time>
      </trkpt>
      <trkpt lat="48.02266" lon="7.21304">
        <ele>754.2</ele>
        <time>2014-10-26T10:00:34Z</time>
      </trkpt>
      <trkpt lat="48.02284" lon="7.21301">
        <ele>754.9</ele>
        <time>2014-10-26T10:00:43Z</time>
      </trkpt>
      <trkpt lat="48.02302" lon="7.21293">
        <ele>754.8</ele>
        <time>2014-10-26T10:00:52Z</time>
      </trkpt>
      <trkpt lat="48.02316" lon="7.21278">
        <ele>751.3</ele>
        <time>2014-10-26T10:01:02Z</time>
      </trkpt>
      <trkpt lat="48.02331" lon="7.21259">
        <ele>747.6</ele>
        <time>2014-10-26T10:01:11Z</time>
      </trkpt>
      <trkpt lat="48.02335" lon="7.21231">
        <ele>741.2</ele>
        <time>2014-10-26T10:02:08Z</time>
      </trkpt>
      <trkpt lat="48.02335" lon="7.21203">
        <ele>733.7</ele>
        <time>2014-10-26T10:02:19Z</time>
      </trkpt>
      <trkpt lat="48.02339" lon="7.21176">
        <ele>724.7</ele>
        <time>2014-10-26T10:02:30Z</time>
      </trkpt>
      <trkpt lat="48.02339" lon="7.21204">
        <ele>734.9</ele>
        <time>2014-10-26T10:04:00Z</time>
      </trkpt>
      <trkpt lat="48.02348" lon="7.21229">
        <ele>743.1</ele>
        <time>2014-10-26T10:04:24Z</time>
      </trkpt>
      <trkpt lat="48.02343" lon="7.212">
        <ele>734.2</ele>
        <time>2014-10-26T10:04:59Z</time>
      </trkpt>
      <trkpt lat="48.02358" lon="7.21214">
        <ele>742.1</ele>
        <time>2014-10-26T10:06:25Z</time>
      </trkpt>
      <trkpt lat="48.02365" lon="7.21189">
        <ele>735.6</ele>
        <time>2014-10-26T10:07:53Z</time>
      </trkpt>
      <trkpt lat="48.02347" lon="7.21183">
        <ele>729.3</ele>
        <time>2014-10-26T10:08:46Z</time>
      </trkpt>
      <trkpt lat="48.02365" lon="7.21177">
        <ele>731.8</ele>
        <time>2014-10-26T10:09:29Z</time>
      </trkpt>
      <trkpt lat="48.02384" lon="7.21145">
        <ele>722.9</ele>
        <time>2014-10-26T10:10:17Z</time>
      </trkpt>
      <trkpt lat="48.02396" lon="7.21165">
        <ele>729.6</ele>
        <time>2014-10-26T10:10:53Z</time>
      </trkpt>
      <trkpt lat="48.02383" lon="7.21147">
        <ele>723.5</ele>
        <time>2014-10-26T10:11:21Z</time>
      </trkpt>
      <trkpt lat="48.02369" lon="7.21164">
        <ele>728</ele>
        <time>2014-10-26T10:11:39Z</time>
      </trkpt>
      <trkpt lat="48.02349" lon="7.21169">
        <ele>724.8</ele>
        <time>2014-10-26T10:11:49Z</time>
      </trkpt>
      <trkpt lat="48.02331" lon="7.21178">
        <ele>723.5</ele>
        <time>2014-10-26T10:12:07Z</time>
      </trkpt>
      <trkpt lat="48.02337" lon="7.21151">
        <ele>715.5</ele>
        <time>2014-10-26T10:12:27Z</time>
      </trkpt>
      <trkpt lat="48.02355" lon="7.21138">
        <ele>715.4</ele>
        <time>2014-10-26T10:12:37Z</time>
      </trkpt>
      <trkpt lat="48.02367" lon="7.21114">
        <ele>710</ele>
        <time>2014-10-26T10:12:48Z</time>
      </trkpt>
      <trkpt lat="48.02384" lon="7.21101">
        <ele>708.2</ele>
        <time>2014-10-26T10:12:57Z</time>
      </trkpt>
      <trkpt lat="48.02403" lon="7.21104">
        <ele>710.1</ele>
        <time>2014-10-26T10:13:06Z</time>
      </trkpt>
      <trkpt lat="48.02418" lon="7.21088">
        <ele>705.6</ele>
        <time>2014-10-26T10:13:21Z</time>
      </trkpt>
      <trkpt lat="48.02435" lon="7.21076">
        <ele>703.1</ele>
        <time>2014-10-26T10:13:43Z</time>
      </trkpt>
      <trkpt lat="48.02436" lon="7.21047">
        <ele>694.7</ele>
        <time>2014-10-26T10:13:52Z</time>
      </trkpt>
      <trkpt lat="48.02431" lon="7.21021">
        <ele>687.2</ele>
        <time>2014-10-26T10:14:09Z</time>
      </trkpt>
      <trkpt lat="48.02432" lon="7.20991">
        <ele>679.4</ele>
        <time>2014-10-26T10:14:17Z</time>
      </trkpt>
      <trkpt lat="48.02433" lon="7.20964">
        <ele>672.2</ele>
        <time>2014-10-26T10:14:25Z</time>
      </trkpt>
      <trkpt lat="48.02427" lon="7.20937">
        <ele>663.8</ele>
        <time>2014-10-26T10:14:33Z</time>
      </trkpt>
      <trkpt lat="48.02423" lon="7.2091">
        <ele>655.3</ele>
        <time>2014-10-26T10:14:41Z</time>
      </trkpt>
      <trkpt lat="48.02413" lon="7.20887">
        <ele>648.2</ele>
        <time>2014-10-26T10:14:47Z</time>
      </trkpt>
      <trkpt lat="48.02394" lon="7.2087">
        <ele>643.9</ele>
        <time>2014-10-26T10:14:52Z</time>
      </trkpt>
      <trkpt lat="48.02413" lon="7.20868">
        <ele>642.4</ele>
        <time>2014-10-26T10:15:18Z</time>
      </trkpt>
      <trkpt lat="48.02432" lon="7.20876">
        <ele>644.2</ele>
        <time>2014-10-26T10:15:26Z</time>
      </trkpt>
      <trkpt lat="48.02449" lon="7.20886">
        <ele>647</ele>
        <time>2014-10-26T10:15:33Z</time>
      </trkpt>
      <trkpt lat="48.02467" lon="7.20892">
        <ele>645.7</ele>
        <time>2014-10-26T10:15:46Z</time>
      </trkpt>
      <trkpt lat="48.02486" lon="7.20891">
        <ele>639.4</ele>
        <time>2014-10-26T10:16:03Z</time>
      </trkpt>
      <trkpt lat="48.02502" lon="7.20907">
        <ele>638.8</ele>
        <time>2014-10-26T10:16:17Z</time>
      </trkpt>
      <trkpt lat="48.02518" lon="7.20922">
        <ele>637.6</ele>
        <time>2014-10-26T10:16:27Z</time>
      </trkpt>
      <trkpt lat="48.02537" lon="7.20925">
        <ele>631.7</ele>
        <time>2014-10-26T10:16:34Z</time>
      </trkpt>
      <trkpt lat="48.02557" lon="7.20921">
        <ele>625.2</ele>
        <time>2014-10-26T10:16:40Z</time>
      </trkpt>
      <trkpt lat="48.02577" lon="7.20912">
        <ele>618.2</ele>
        <time>2014-10-26T10:16:46Z</time>
      </trkpt>
      <trkpt lat="48.02594" lon="7.20902">
        <ele>611.1</ele>
        <time>2014-10-26T10:16:50Z</time>
      </trkpt>
      <trkpt lat="48.02613" lon="7.2089">
        <ele>602.4</ele>
        <time>2014-10-26T10:16:54Z</time>
      </trkpt>
      <trkpt lat="48.02634" lon="7.20876">
        <ele>593.3</ele>
        <time>2014-10-26T10:16:58Z</time>
      </trkpt>
      <trkpt lat="48.02651" lon="7.20862">
        <ele>586.2</ele>
        <time>2014-10-26T10:17:02Z</time>
      </trkpt>
      <trkpt lat="48.02669" lon="7.20847">
        <ele>578</ele>
        <time>2014-10-26T10:17:06Z</time>
      </trkpt>
      <trkpt lat="48.0269" lon="7.20836">
        <ele>570.7</ele>
        <time>2014-10-26T10:17:10Z</time>
      </trkpt>
      <trkpt lat="48.02707" lon="7.20828">
        <ele>565.2</ele>
        <time>2014-10-26T10:17:15Z</time>
      </trkpt>
      <trkpt lat="48.02699" lon="7.20803">
        <ele>556.2</ele>
        <time>2014-10-26T10:17:40Z</time>
      </trkpt>
      <trkpt lat="48.0268" lon="7.20791">
        <ele>554.9</ele>
        <time>2014-10-26T10:17:46Z</time>
      </trkpt>
      <trkpt lat="48.0266" lon="7.20782">
        <ele>555.7</ele>
        <time>2014-10-26T10:17:51Z</time>
      </trkpt>
      <trkpt lat="48.0264" lon="7.20772">
        <ele>555.4</ele>
        <time>2014-10-26T10:17:56Z</time>
      </trkpt>
      <trkpt lat="48.02623" lon="7.20761">
        <ele>555.2</ele>
        <time>2014-10-26T10:18:01Z</time>
      </trkpt>
      <trkpt lat="48.02644" lon="7.20757">
        <ele>549.7</ele>
        <time>2014-10-26T10:18:34Z</time>
      </trkpt>
      <trkpt lat="48.02661" lon="7.20749">
        <ele>544.1</ele>
        <time>2014-10-26T10:18:40Z</time>
      </trkpt>
      <trkpt lat="48.02678" lon="7.20739">
        <ele>538.4</ele>
        <time>2014-10-26T10:18:46Z</time>
      </trkpt>
      <trkpt lat="48.02693" lon="7.20724">
        <ele>531.1</ele>
        <time>2014-10-26T10:18:51Z</time>
      </trkpt>
      <trkpt lat="48.0271" lon="7.20709">
        <ele>524.4</ele>
        <time>2014-10-26T10:18:55Z</time>
      </trkpt>
      <trkpt lat="48.02728" lon="7.20695">
        <ele>522.4</ele>
        <time>2014-10-26T10:19:00Z</time>
      </trkpt>
      <trkpt lat="48.02745" lon="7.20675">
        <ele>518.2</ele>
        <time>2014-10-26T10:19:05Z</time>
      </trkpt>
      <trkpt lat="48.02763" lon="7.20654">
        <ele>513.3</ele>
        <time>2014-10-26T10:19:09Z</time>
      </trkpt>
      <trkpt lat="48.02779" lon="7.20635">
        <ele>508</ele>
        <time>2014-10-26T10:19:12Z</time>
      </trkpt>
      <trkpt lat="48.02792" lon="7.20615">
        <ele>501.8</ele>
        <time>2014-10-26T10:19:15Z</time>
      </trkpt>
      <trkpt lat="48.02808" lon="7.20591">
        <ele>496.2</ele>
        <time>2014-10-26T10:19:19Z</time>
      </trkpt>
      <trkpt lat="48.02821" lon="7.20571">
        <ele>491.6</ele>
        <time>2014-10-26T10:19:23Z</time>
      </trkpt>
      <trkpt lat="48.0284" lon="7.20555">
        <ele>488.7</ele>
        <time>2014-10-26T10:19:27Z</time>
      </trkpt>
      <trkpt lat="48.02858" lon="7.20547">
        <ele>488.5</ele>
        <time>2014-10-26T10:19:33Z</time>
      </trkpt>
      <trkpt lat="48.02878" lon="7.20554">
        <ele>492.4</ele>
        <time>2014-10-26T10:19:39Z</time>
      </trkpt>
      <trkpt lat="48.02892" lon="7.20538">
        <ele>485.4</ele>
        <time>2014-10-26T10:19:58Z</time>
      </trkpt>
      <trkpt lat="48.02909" lon="7.2055">
        <ele>487</ele>
        <time>2014-10-26T10:20:22Z</time>
      </trkpt>
      <trkpt lat="48.02926" lon="7.20562">
        <ele>488</ele>
        <time>2014-10-26T10:20:29Z</time>
      </trkpt>
      <trkpt lat="48.02948" lon="7.20561">
        <ele>484.8</ele>
        <time>2014-10-26T10:20:37Z</time>
      </trkpt>
      <trkpt lat="48.02968" lon="7.20556">
        <ele>480.1</ele>
        <time>2014-10-26T10:20:42Z</time>
      </trkpt>
      <trkpt lat="48.0299" lon="7.20556">
        <ele>476.2</ele>
        <time>2014-10-26T10:20:45Z</time>
      </trkpt>
      <trkpt lat="48.0301" lon="7.20559">
        <ele>473.6</ele>
        <time>2014-10-26T10:20:48Z</time>
      </trkpt>
      <trkpt lat="48.03033" lon="7.20557">
        <ele>468.9</ele>
        <time>2014-10-26T10:20:52Z</time>
      </trkpt>
      <trkpt lat="48.03052" lon="7.20556">
        <ele>465.3</ele>
        <time>2014-10-26T10:20:56Z</time>
      </trkpt>
      <trkpt lat="48.03073" lon="7.20554">
        <ele>461.1</ele>
        <time>2014-10-26T10:21:00Z</time>
      </trkpt>
      <trkpt lat="48.03094" lon="7.20552">
        <ele>456.7</ele>
        <time>2014-10-26T10:21:03Z</time>
      </trkpt>
      <trkpt lat="48.03121" lon="7.20548">
        <ele>450.6</ele>
        <time>2014-10-26T10:21:06Z</time>
      </trkpt>
      <trkpt lat="48.03145" lon="7.20544">
        <ele>445.7</ele>
        <time>2014-10-26T10:21:09Z</time>
      </trkpt>
      <trkpt lat="48.03165" lon="7.20542">
        <ele>442</ele>
        <time>2014-10-26T10:21:12Z</time>
      </trkpt>
      <trkpt lat="48.03185" lon="7.20543">
        <ele>439.2</ele>
        <time>2014-10-26T10:21:16Z</time>
      </trkpt>
      <trkpt lat="48.03209" lon="7.20547">
        <ele>436.7</ele>
        <time>2014-10-26T10:21:20Z</time>
      </trkpt>
      <trkpt lat="48.03231" lon="7.20551">
        <ele>435.4</ele>
        <time>2014-10-26T10:21:24Z</time>
      </trkpt>
      <trkpt lat="48.0325" lon="7.20552">
        <ele>433.2</ele>
        <time>2014-10-26T10:21:27Z</time>
      </trkpt>
      <trkpt lat="48.0327" lon="7.20556">
        <ele>431.7</ele>
        <time>2014-10-26T10:21:30Z</time>
      </trkpt>
      <trkpt lat="48.03289" lon="7.20559">
        <ele>430.2</ele>
        <time>2014-10-26T10:21:34Z</time>
      </trkpt>
      <trkpt lat="48.03307" lon="7.20562">
        <ele>427.6</ele>
        <time>2014-10-26T10:21:40Z</time>
      </trkpt>
      <trkpt lat="48.03325" lon="7.2056">
        <ele>423.2</ele>
        <time>2014-10-26T10:21:53Z</time>
      </trkpt>
      <trkpt lat="48.03343" lon="7.20557">
        <ele>418.6</ele>
        <time>2014-10-26T10:22:08Z</time>
      </trkpt>
      <trkpt lat="48.03359" lon="7.20573">
        <ele>419.9</ele>
        <time>2014-10-26T10:22:19Z</time>
      </trkpt>
      <trkpt lat="48.03376" lon="7.20589">
        <ele>421.5</ele>
        <time>2014-10-26T10:22:25Z</time>
      </trkpt>
      <trkpt lat="48.03391" lon="7.20609">
        <ele>424.3</ele>
        <time>2014-10-26T10:22:31Z</time>
      </trkpt>
      <trkpt lat="48.03406" lon="7.20634">
        <ele>427.5</ele>
        <time>2014-10-26T10:22:36Z</time>
      </trkpt>
      <trkpt lat="48.03417" lon="7.20661">
        <ele>430.7</ele>
        <time>2014-10-26T10:22:41Z</time>
      </trkpt>
      <trkpt lat="48.03429" lon="7.20688">
        <ele>433.3</ele>
        <time>2014-10-26T10:22:47Z</time>
      </trkpt>
      <trkpt lat="48.03435" lon="7.20716">
        <ele>436.7</ele>
        <time>2014-10-26T10:22:53Z</time>
      </trkpt>
      <trkpt lat="48.03428" lon="7.20743">
        <ele>440.3</ele>
        <time>2014-10-26T10:22:59Z</time>
      </trkpt>
      <trkpt lat="48.03421" lon="7.2077">
        <ele>444</ele>
        <time>2014-10-26T10:23:04Z</time>
      </trkpt>
      <trkpt lat="48.03407" lon="7.20792">
        <ele>449.2</ele>
        <time>2014-10-26T10:23:09Z</time>
      </trkpt>
      <trkpt lat="48.03392" lon="7.20808">
        <ele>451.9</ele>
        <time>2014-10-26T10:23:14Z</time>
      </trkpt>
      <trkpt lat="48.03378" lon="7.2083">
        <ele>453.8</ele>
        <time>2014-10-26T10:23:19Z</time>
      </trkpt>
      <trkpt lat="48.03369" lon="7.20858">
        <ele>454.1</ele>
        <time>2014-10-26T10:23:24Z</time>
      </trkpt>
      <trkpt lat="48.03363" lon="7.20886">
        <ele>453.9</ele>
        <time>2014-10-26T10:23:29Z</time>
      </trkpt>
      <trkpt lat="48.03356" lon="7.20912">
        <ele>454.4</ele>
        <time>2014-10-26T10:23:33Z</time>
      </trkpt>
      <trkpt lat="48.0335" lon="7.20941">
        <ele>454.2</ele>
        <time>2014-10-26T10:23:38Z</time>
      </trkpt>
      <trkpt lat="48.03349" lon="7.20969">
        <ele>453.5</ele>
        <time>2014-10-26T10:23:42Z</time>
      </trkpt>
      <trkpt lat="48.03351" lon="7.20999">
        <ele>453.4</ele>
        <time>2014-10-26T10:23:47Z</time>
      </trkpt>
      <trkpt lat="48.03352" lon="7.21031">
        <ele>453.4</ele>
        <time>2014-10-26T10:23:52Z</time>
      </trkpt>
      <trkpt lat="48.03348" lon="7.21062">
        <ele>454.8</ele>
        <time>2014-10-26T10:23:57Z</time>
      </trkpt>
      <trkpt lat="48.03346" lon="7.21095">
        <ele>455.4</ele>
        <time>2014-10-26T10:24:03Z</time>
      </trkpt>
      <trkpt lat="48.03344" lon="7.21122">
        <ele>455.9</ele>
        <time>2014-10-26T10:24:08Z</time>
      </trkpt>
      <trkpt lat="48.03333" lon="7.21151">
        <ele>459.7</ele>
        <time>2014-10-26T10:24:13Z</time>
      </trkpt>
      <trkpt lat="48.03323" lon="7.21179">
        <ele>462.6</ele>
        <time>2014-10-26T10:24:18Z</time>
      </trkpt>
      <trkpt lat="48.03313" lon="7.21207">
        <ele>465.7</ele>
        <time>2014-10-26T10:24:23Z</time>
      </trkpt>
      <trkpt lat="48.03304" lon="7.2123">
        <ele>465.6</ele>
        <time>2014-10-26T10:24:28Z</time>
      </trkpt>
      <trkpt lat="48.03291" lon="7.21254">
        <ele>465.8</ele>
        <time>2014-10-26T10:24:33Z</time>
      </trkpt>
      <trkpt lat="48.0328" lon="7.21282">
        <ele>464.3</ele>
        <time>2014-10-26T10:24:38Z</time>
      </trkpt>
      <trkpt lat="48.03292" lon="7.2131">
        <ele>456.5</ele>
        <time>2014-10-26T10:24:41Z</time>
      </trkpt>
      <trkpt lat="48.03304" lon="7.21337">
        <ele>450</ele>
        <time>2014-10-26T10:24:45Z</time>
      </trkpt>
      <trkpt lat="48.03317" lon="7.21359">
        <ele>444.6</ele>
        <time>2014-10-26T10:24:49Z</time>
      </trkpt>
      <trkpt lat="48.03335" lon="7.21372">
        <ele>440</ele>
        <time>2014-10-26T10:24:55Z</time>
      </trkpt>
      <trkpt lat="48.03351" lon="7.21387">
        <ele>437.5</ele>
        <time>2014-10-26T10:25:03Z</time>
      </trkpt>
      <trkpt lat="48.03348" lon="7.21416">
        <ele>440.3</ele>
        <time>2014-10-26T10:25:16Z</time>
      </trkpt>
      <trkpt lat="48.03334" lon="7.21435">
        <ele>444.2</ele>
        <time>2014-10-26T10:25:24Z</time>
      </trkpt>
      <trkpt lat="48.03316" lon="7.21444">
        <ele>447.9</ele>
        <time>2014-10-26T10:25:33Z</time>
      </trkpt>
      <trkpt lat="48.03298" lon="7.21454">
        <ele>451.6</ele>
        <time>2014-10-26T10:25:41Z</time>
      </trkpt>
      <trkpt lat="48.03282" lon="7.21468">
        <ele>454.6</ele>
        <time>2014-10-26T10:25:48Z</time>
      </trkpt>
      <trkpt lat="48.03266" lon="7.21483">
        <ele>457.6</ele>
        <time>2014-10-26T10:25:53Z</time>
      </trkpt>
      <trkpt lat="48.03252" lon="7.215">
        <ele>461</ele>
        <time>2014-10-26T10:25:59Z</time>
      </trkpt>
      <trkpt lat="48.03238" lon="7.21522">
        <ele>465.3</ele>
        <time>2014-10-26T10:26:06Z</time>
      </trkpt>
      <trkpt lat="48.03224" lon="7.2154">
        <ele>469.7</ele>
        <time>2014-10-26T10:26:13Z</time>
      </trkpt>
      <trkpt lat="48.03211" lon="7.21563">
        <ele>473.3</ele>
        <time>2014-10-26T10:26:20Z</time>
      </trkpt>
      <trkpt lat="48.032" lon="7.21589">
        <ele>476.5</ele>
        <time>2014-10-26T10:26:27Z</time>
      </trkpt>
      <trkpt lat="48.03187" lon="7.21613">
        <ele>479.7</ele>
        <time>2014-10-26T10:26:34Z</time>
      </trkpt>
      <trkpt lat="48.03179" lon="7.21639">
        <ele>481.3</ele>
        <time>2014-10-26T10:26:41Z</time>
      </trkpt>
      <trkpt lat="48.03166" lon="7.21667">
        <ele>483.6</ele>
        <time>2014-10-26T10:26:48Z</time>
      </trkpt>
      <trkpt lat="48.03157" lon="7.21692">
        <ele>486.9</ele>
        <time>2014-10-26T10:26:56Z</time>
      </trkpt>
      <trkpt lat="48.03152" lon="7.21719">
        <ele>488.4</ele>
        <time>2014-10-26T10:27:03Z</time>
      </trkpt>
      <trkpt lat="48.03147" lon="7.21746">
        <ele>488.5</ele>
        <time>2014-10-26T10:27:07Z</time>
      </trkpt>
      <trkpt lat="48.03143" lon="7.21776">
        <ele>487.9</ele>
        <time>2014-10-26T10:27:14Z</time>
      </trkpt>
      <trkpt lat="48.0314" lon="7.21804">
        <ele>487.3</ele>
        <time>2014-10-26T10:27:22Z</time>
      </trkpt>
      <trkpt lat="48.03139" lon="7.21831">
        <ele>486.1</ele>
        <time>2014-10-26T10:27:31Z</time>
      </trkpt>
      <trkpt lat="48.03133" lon="7.21856">
        <ele>486.9</ele>
        <time>2014-10-26T10:27:43Z</time>
      </trkpt>
      <trkpt lat="48.03123" lon="7.2188">
        <ele>489.2</ele>
        <time>2014-10-26T10:27:55Z</time>
      </trkpt>
      <trkpt lat="48.03122" lon="7.21908">
        <ele>490.2</ele>
        <time>2014-10-26T10:28:06Z</time>
      </trkpt>
      <trkpt lat="48.03129" lon="7.21933">
        <ele>488.4</ele>
        <time>2014-10-26T10:28:17Z</time>
      </trkpt>
      <trkpt lat="48.03148" lon="7.21931">
        <ele>483.7</ele>
        <time>2014-10-26T10:28:28Z</time>
      </trkpt>
      <trkpt lat="48.03163" lon="7.21916">
        <ele>479</ele>
        <time>2014-10-26T10:28:38Z</time>
      </trkpt>
      <trkpt lat="48.03177" lon="7.21899">
        <ele>474.1</ele>
        <time>2014-10-26T10:28:46Z</time>
      </trkpt>
      <trkpt lat="48.03193" lon="7.21882">
        <ele>468.2</ele>
        <time>2014-10-26T10:28:57Z</time>
      </trkpt>
      <trkpt lat="48.0321" lon="7.21867">
        <ele>462.9</ele>
        <time>2014-10-26T10:29:10Z</time>
      </trkpt>
      <trkpt lat="48.03229" lon="7.2187">
        <ele>465.2</ele>
        <time>2014-10-26T10:29:24Z</time>
      </trkpt>
      <trkpt lat="48.03248" lon="7.21874">
        <ele>467.6</ele>
        <time>2014-10-26T10:29:34Z</time>
      </trkpt>
      <trkpt lat="48.03265" lon="7.21879">
        <ele>470.6</ele>
        <time>2014-10-26T10:29:46Z</time>
      </trkpt>
      <trkpt lat="48.03284" lon="7.21885">
        <ele>474.1</ele>
        <time>2014-10-26T10:29:59Z</time>
      </trkpt>
      <trkpt lat="48.03299" lon="7.21868">
        <ele>473.4</ele>
        <time>2014-10-26T10:30:13Z</time>
      </trkpt>
      <trkpt lat="48.03303" lon="7.21842">
        <ele>470.1</ele>
        <time>2014-10-26T10:30:22Z</time>
      </trkpt>
      <trkpt lat="48.03307" lon="7.21815">
        <ele>466.8</ele>
        <time>2014-10-26T10:30:33Z</time>
      </trkpt>
      <trkpt lat="48.03325" lon="7.21816">
        <ele>470.7</ele>
        <time>2014-10-26T10:30:56Z</time>
      </trkpt>
      <trkpt lat="48.03344" lon="7.21823">
        <ele>475.7</ele>
        <time>2014-10-26T10:31:10Z</time>
      </trkpt>
      <trkpt lat="48.03362" lon="7.21828">
        <ele>480.3</ele>
        <time>2014-10-26T10:31:21Z</time>
      </trkpt>
      <trkpt lat="48.03381" lon="7.2183">
        <ele>484.2</ele>
        <time>2014-10-26T10:31:31Z</time>
      </trkpt>
      <trkpt lat="48.03399" lon="7.21832">
        <ele>486.5</ele>
        <time>2014-10-26T10:31:39Z</time>
      </trkpt>
      <trkpt lat="48.03419" lon="7.21832">
        <ele>488.6</ele>
        <time>2014-10-26T10:31:51Z</time>
      </trkpt>
      <trkpt lat="48.03438" lon="7.21834">
        <ele>491.3</ele>
        <time>2014-10-26T10:32:03Z</time>
      </trkpt>
      <trkpt lat="48.03457" lon="7.21839">
        <ele>495</ele>
        <time>2014-10-26T10:32:13Z</time>
      </trkpt>
      <trkpt lat="48.03476" lon="7.21849">
        <ele>500.3</ele>
        <time>2014-10-26T10:32:23Z</time>
      </trkpt>
      <trkpt lat="48.03494" lon="7.21842">
        <ele>500.6</ele>
        <time>2014-10-26T10:32:32Z</time>
      </trkpt>
      <trkpt lat="48.0351" lon="7.21824">
        <ele>497.4</ele>
        <time>2014-10-26T10:32:39Z</time>
      </trkpt>
      <trkpt lat="48.03523" lon="7.21805">
        <ele>493.3</ele>
        <time>2014-10-26T10:32:47Z</time>
      </trkpt>
      <trkpt lat="48.03537" lon="7.21785">
        <ele>489.1</ele>
        <time>2014-10-26T10:32:57Z</time>
      </trkpt>
      <trkpt lat="48.03555" lon="7.2177">
        <ele>490.6</ele>
        <time>2014-10-26T10:33:06Z</time>
      </trkpt>
      <trkpt lat="48.03567" lon="7.21749">
        <ele>490.4</ele>
        <time>2014-10-26T10:33:13Z</time>
      </trkpt>
      <trkpt lat="48.03576" lon="7.21723">
        <ele>487.9</ele>
        <time>2014-10-26T10:33:23Z</time>
      </trkpt>
      <trkpt lat="48.0359" lon="7.21707">
        <ele>489.8</ele>
        <time>2014-10-26T10:33:35Z</time>
      </trkpt>
      <trkpt lat="48.03608" lon="7.21694">
        <ele>493.4</ele>
        <time>2014-10-26T10:33:49Z</time>
      </trkpt>
      <trkpt lat="48.03622" lon="7.21676">
        <ele>494.6</ele>
        <time>2014-10-26T10:33:58Z</time>
      </trkpt>
      <trkpt lat="48.03639" lon="7.21666">
        <ele>497.4</ele>
        <time>2014-10-26T10:34:09Z</time>
      </trkpt>
      <trkpt lat="48.03657" lon="7.21655">
        <ele>499.7</ele>
        <time>2014-10-26T10:34:23Z</time>
      </trkpt>
      <trkpt lat="48.03675" lon="7.21654">
        <ele>504.5</ele>
        <time>2014-10-26T10:34:33Z</time>
      </trkpt>
      <trkpt lat="48.03693" lon="7.21644">
        <ele>507.3</ele>
        <time>2014-10-26T10:34:43Z</time>
      </trkpt>
      <trkpt lat="48.03708" lon="7.21624">
        <ele>506.8</ele>
        <time>2014-10-26T10:34:49Z</time>
      </trkpt>
      <trkpt lat="48.03718" lon="7.21599">
        <ele>509</ele>
        <time>2014-10-26T10:34:57Z</time>
      </trkpt>
      <trkpt lat="48.03725" lon="7.21573">
        <ele>510</ele>
        <time>2014-10-26T10:35:05Z</time>
      </trkpt>
      <trkpt lat="48.03732" lon="7.21546">
        <ele>511.1</ele>
        <time>2014-10-26T10:35:14Z</time>
      </trkpt>
      <trkpt lat="48.03732" lon="7.21516">
        <ele>509.4</ele>
        <time>2014-10-26T10:35:25Z</time>
      </trkpt>
      <trkpt lat="48.03735" lon="7.21488">
        <ele>509</ele>
        <time>2014-10-26T10:35:35Z</time>
      </trkpt>
      <trkpt lat="48.03739" lon="7.21461">
        <ele>508.8</ele>
        <time>2014-10-26T10:35:44Z</time>
      </trkpt>
      <trkpt lat="48.03746" lon="7.21436">
        <ele>507.1</ele>
        <time>2014-10-26T10:35:59Z</time>
      </trkpt>
      <trkpt lat="48.03762" lon="7.21421">
        <ele>509.3</ele>
        <time>2014-10-26T10:36:11Z</time>
      </trkpt>
      <trkpt lat="48.03779" lon="7.21429">
        <ele>516.3</ele>
        <time>2014-10-26T10:36:29Z</time>
      </trkpt>
      <trkpt lat="48.03795" lon="7.21445">
        <ele>523.8</ele>
        <time>2014-10-26T10:36:38Z</time>
      </trkpt>
      <trkpt lat="48.03811" lon="7.21458">
        <ele>526.6</ele>
        <time>2014-10-26T10:36:47Z</time>
      </trkpt>
      <trkpt lat="48.03825" lon="7.21478">
        <ele>529.2</ele>
        <time>2014-10-26T10:36:58Z</time>
      </trkpt>
      <trkpt lat="48.03835" lon="7.215">
        <ele>532.6</ele>
        <time>2014-10-26T10:37:08Z</time>
      </trkpt>
      <trkpt lat="48.03844" lon="7.21525">
        <ele>536.6</ele>
        <time>2014-10-26T10:37:19Z</time>
      </trkpt>
      <trkpt lat="48.03838" lon="7.2155">
        <ele>539.1</ele>
        <time>2014-10-26T10:37:37Z</time>
      </trkpt>
      <trkpt lat="48.03825" lon="7.21571">
        <ele>539</ele>
        <time>2014-10-26T10:37:47Z</time>
      </trkpt>
      <trkpt lat="48.0381" lon="7.21589">
        <ele>538.8</ele>
        <time>2014-10-26T10:37:58Z</time>
      </trkpt>
      <trkpt lat="48.03797" lon="7.21608">
        <ele>538.7</ele>
        <time>2014-10-26T10:38:08Z</time>
      </trkpt>
      <trkpt lat="48.03785" lon="7.21627">
        <ele>536.4</ele>
        <time>2014-10-26T10:38:18Z</time>
      </trkpt>
      <trkpt lat="48.03792" lon="7.21653">
        <ele>541</ele>
        <time>2014-10-26T10:38:35Z</time>
      </trkpt>
      <trkpt lat="48.0381" lon="7.21642">
        <ele>540.9</ele>
        <time>2014-10-26T10:39:08Z</time>
      </trkpt>
      <trkpt lat="48.03822" lon="7.21621">
        <ele>540.7</ele>
        <time>2014-10-26T10:39:20Z</time>
      </trkpt>
      <trkpt lat="48.0383" lon="7.21595">
        <ele>540.2</ele>
        <time>2014-10-26T10:39:30Z</time>
      </trkpt>
      <trkpt lat="48.03848" lon="7.2158">
        <ele>540.7</ele>
        <time>2014-10-26T10:39:37Z</time>
      </trkpt>
      <trkpt lat="48.03859" lon="7.21556">
        <ele>540.6</ele>
        <time>2014-10-26T10:39:43Z</time>
      </trkpt>
      <trkpt lat="48.03842" lon="7.21567">
        <ele>539.9</ele>
        <time>2014-10-26T10:40:24Z</time>
      </trkpt>
      <trkpt lat="48.03835" lon="7.21595">
        <ele>540.5</ele>
        <time>2014-10-26T10:40:33Z</time>
      </trkpt>
      <trkpt lat="48.03832" lon="7.21623">
        <ele>541.4</ele>
        <time>2014-10-26T10:40:40Z</time>
      </trkpt>
      <trkpt lat="48.03836" lon="7.21651">
        <ele>541.9</ele>
        <time>2014-10-26T10:40:51Z</time>
      </trkpt>
      <trkpt lat="48.03846" lon="7.21628">
        <ele>542.2</ele>
        <time>2014-10-26T10:41:05Z</time>
      </trkpt>
      <trkpt lat="48.03861" lon="7.21608">
        <ele>542.6</ele>
        <time>2014-10-26T10:41:11Z</time>
      </trkpt>
      <trkpt lat="48.0388" lon="7.21593">
        <ele>541</ele>
        <time>2014-10-26T10:41:17Z</time>
      </trkpt>
      <trkpt lat="48.03894" lon="7.2157">
        <ele>534.8</ele>
        <time>2014-10-26T10:41:23Z</time>
      </trkpt>
      <trkpt lat="48.03904" lon="7.21546">
        <ele>530.7</ele>
        <time>2014-10-26T10:41:30Z</time>
      </trkpt>
      <trkpt lat="48.03885" lon="7.21557">
        <ele>537.7</ele>
        <time>2014-10-26T10:41:52Z</time>
      </trkpt>
      <trkpt lat="48.03878" lon="7.21582">
        <ele>541.4</ele>
        <time>2014-10-26T10:41:59Z</time>
      </trkpt>
      <trkpt lat="48.03897" lon="7.21574">
        <ele>533.5</ele>
        <time>2014-10-26T10:42:22Z</time>
      </trkpt>
      <trkpt lat="48.03914" lon="7.2156">
        <ele>526.9</ele>
        <time>2014-10-26T10:42:31Z</time>
      </trkpt>
      <trkpt lat="48.03925" lon="7.21536">
        <ele>522.1</ele>
        <time>2014-10-26T10:43:14Z</time>
      </trkpt>
      <trkpt lat="48.03918" lon="7.21562">
        <ele>525.6</ele>
        <time>2014-10-26T10:43:37Z</time>
      </trkpt>
      <trkpt lat="48.03913" lon="7.2159">
        <ele>527.6</ele>
        <time>2014-10-26T10:43:44Z</time>
      </trkpt>
      <trkpt lat="48.03931" lon="7.21593">
        <ele>520</ele>
        <time>2014-10-26T10:44:06Z</time>
      </trkpt>
      <trkpt lat="48.03948" lon="7.21573">
        <ele>514</ele>
        <time>2014-10-26T10:44:12Z</time>
      </trkpt>
      <trkpt lat="48.03963" lon="7.21557">
        <ele>508.3</ele>
        <time>2014-10-26T10:44:18Z</time>
      </trkpt>
      <trkpt lat="48.03976" lon="7.21534">
        <ele>502</ele>
        <time>2014-10-26T10:44:23Z</time>
      </trkpt>
      <trkpt lat="48.03991" lon="7.21518">
        <ele>493.5</ele>
        <time>2014-10-26T10:44:28Z</time>
      </trkpt>
      <trkpt lat="48.03972" lon="7.21525">
        <ele>502.5</ele>
        <time>2014-10-26T10:44:52Z</time>
      </trkpt>
      <trkpt lat="48.03963" lon="7.21551">
        <ele>508.7</ele>
        <time>2014-10-26T10:44:59Z</time>
      </trkpt>
      <trkpt lat="48.03958" lon="7.21577">
        <ele>510</ele>
        <time>2014-10-26T10:45:06Z</time>
      </trkpt>
      <trkpt lat="48.03956" lon="7.21605">
        <ele>509.7</ele>
        <time>2014-10-26T10:45:18Z</time>
      </trkpt>
      <trkpt lat="48.03973" lon="7.21594">
        <ele>502</ele>
        <time>2014-10-26T10:45:28Z</time>
      </trkpt>
      <trkpt lat="48.03993" lon="7.21582">
        <ele>493.3</ele>
        <time>2014-10-26T10:45:35Z</time>
      </trkpt>
      <trkpt lat="48.04008" lon="7.21568">
        <ele>486.5</ele>
        <time>2014-10-26T10:45:39Z</time>
      </trkpt>
      <trkpt lat="48.04024" lon="7.2155">
        <ele>479.9</ele>
        <time>2014-10-26T10:45:46Z</time>
      </trkpt>
      <trkpt lat="48.04037" lon="7.21529">
        <ele>473.8</ele>
        <time>2014-10-26T10:45:55Z</time>
      </trkpt>
      <trkpt lat="48.04051" lon="7.21509">
        <ele>468.5</ele>
        <time>2014-10-26T10:46:02Z</time>
      </trkpt>
      <trkpt lat="48.04062" lon="7.21484">
        <ele>465</ele>
        <time>2014-10-26T10:46:10Z</time>
      </trkpt>
      <trkpt lat="48.0408" lon="7.21472">
        <ele>460.1</ele>
        <time>2014-10-26T10:46:22Z</time>
      </trkpt>
      <trkpt lat="48.04097" lon="7.2146">
        <ele>456.1</ele>
        <time>2014-10-26T10:46:50Z</time>
      </trkpt>
      <trkpt lat="48.04115" lon="7.21459">
        <ele>451.5</ele>
        <time>2014-10-26T10:47:26Z</time>
      </trkpt>
      <trkpt lat="48.04097" lon="7.21454">
        <ele>455.6</ele>
        <time>2014-10-26T10:48:12Z</time>
      </trkpt>
      <trkpt lat="48.0408" lon="7.21469">
        <ele>460.2</ele>
        <time>2014-10-26T10:48:23Z</time>
      </trkpt>
      <trkpt lat="48.0407" lon="7.21494">
        <ele>462.6</ele>
        <time>2014-10-26T10:48:34Z</time>
      </trkpt>
      <trkpt lat="48.04071" lon="7.21523">
        <ele>462.3</ele>
        <time>2014-10-26T10:48:40Z</time>
      </trkpt>
      <trkpt lat="48.04062" lon="7.21549">
        <ele>464.6</ele>
        <time>2014-10-26T10:48:48Z</time>
      </trkpt>
      <trkpt lat="48.04072" lon="7.21575">
        <ele>459.1</ele>
        <time>2014-10-26T10:48:55Z</time>
      </trkpt>
      <trkpt lat="48.04088" lon="7.21593">
        <ele>450.8</ele>
        <time>2014-10-26T10:49:00Z</time>
      </trkpt>
      <trkpt lat="48.04107" lon="7.2161">
        <ele>441.1</ele>
        <time>2014-10-26T10:49:06Z</time>
      </trkpt>
      <trkpt lat="48.04124" lon="7.2162">
        <ele>432.1</ele>
        <time>2014-10-26T10:49:16Z</time>
      </trkpt>
      <trkpt lat="48.04142" lon="7.2161">
        <ele>428.1</ele>
        <time>2014-10-26T10:50:25Z</time>
      </trkpt>
      <trkpt lat="48.04161" lon="7.2162">
        <ele>420.7</ele>
        <time>2014-10-26T10:50:48Z</time>
      </trkpt>
      <trkpt lat="48.04176" lon="7.21635">
        <ele>415.3</ele>
        <time>2014-10-26T10:50:58Z</time>
      </trkpt>
      <trkpt lat="48.04196" lon="7.21637">
        <ele>409.3</ele>
        <time>2014-10-26T10:51:09Z</time>
      </trkpt>
      <trkpt lat="48.04213" lon="7.21629">
        <ele>403.6</ele>
        <time>2014-10-26T10:51:18Z</time>
      </trkpt>
      <trkpt lat="48.04233" lon="7.21617">
        <ele>399.5</ele>
        <time>2014-10-26T10:51:39Z</time>
      </trkpt>
      <trkpt lat="48.04252" lon="7.21614">
        <ele>394.2</ele>
        <time>2014-10-26T10:51:44Z</time>
      </trkpt>
      <trkpt lat="48.04273" lon="7.21605">
        <ele>389.3</ele>
        <time>2014-10-26T10:51:49Z</time>
      </trkpt>
      <trkpt lat="48.04285" lon="7.21584">
        <ele>388.5</ele>
        <time>2014-10-26T10:51:53Z</time>
      </trkpt>
      <trkpt lat="48.04294" lon="7.21558">
        <ele>388.8</ele>
        <time>2014-10-26T10:51:56Z</time>
      </trkpt>
      <trkpt lat="48.04305" lon="7.21523">
        <ele>387.5</ele>
        <time>2014-10-26T10:51:59Z</time>
      </trkpt>
      <trkpt lat="48.0431" lon="7.21497">
        <ele>386.6</ele>
        <time>2014-10-26T10:52:02Z</time>
      </trkpt>
      <trkpt lat="48.04313" lon="7.21468">
        <ele>387.1</ele>
        <time>2014-10-26T10:52:08Z</time>
      </trkpt>
      <trkpt lat="48.04316" lon="7.21441">
        <ele>384.5</ele>
        <time>2014-10-26T10:52:18Z</time>
      </trkpt>
      <trkpt lat="48.04302" lon="7.21457">
        <ele>393</ele>
        <time>2014-10-26T10:52:45Z</time>
      </trkpt>
      <trkpt lat="48.043" lon="7.21484">
        <ele>392.2</ele>
        <time>2014-10-26T10:53:36Z</time>
      </trkpt>
      <trkpt lat="48.04298" lon="7.21514">
        <ele>391.1</ele>
        <time>2014-10-26T10:53:46Z</time>
      </trkpt>
      <trkpt lat="48.04289" lon="7.21538">
        <ele>393.1</ele>
        <time>2014-10-26T10:53:59Z</time>
      </trkpt>
      <trkpt lat="48.04301" lon="7.21517">
        <ele>389.4</ele>
        <time>2014-10-26T10:54:33Z</time>
      </trkpt>
      <trkpt lat="48.04311" lon="7.21493">
        <ele>386.5</ele>
        <time>2014-10-26T10:54:55Z</time>
      </trkpt>
      <trkpt lat="48.04313" lon="7.21522">
        <ele>384</ele>
        <time>2014-10-26T10:55:30Z</time>
      </trkpt>
      <trkpt lat="48.0432" lon="7.21549">
        <ele>379.4</ele>
        <time>2014-10-26T10:55:37Z</time>
      </trkpt>
      <trkpt lat="48.04338" lon="7.21554">
        <ele>371.3</ele>
        <time>2014-10-26T10:55:43Z</time>
      </trkpt>
      <trkpt lat="48.04346" lon="7.21526">
        <ele>369.3</ele>
        <time>2014-10-26T10:55:48Z</time>
      </trkpt>
      <trkpt lat="48.04349" lon="7.21497">
        <ele>368.7</ele>
        <time>2014-10-26T10:55:53Z</time>
      </trkpt>
      <trkpt lat="48.04361" lon="7.21524">
        <ele>362.4</ele>
        <time>2014-10-26T10:56:10Z</time>
      </trkpt>
      <trkpt lat="48.04375" lon="7.21549">
        <ele>356</ele>
        <time>2014-10-26T10:56:14Z</time>
      </trkpt>
      <trkpt lat="48.04386" lon="7.21572">
        <ele>352.5</ele>
        <time>2014-10-26T10:56:21Z</time>
      </trkpt>
      <trkpt lat="48.044" lon="7.21593">
        <ele>348.2</ele>
        <time>2014-10-26T10:56:32Z</time>
      </trkpt>
      <trkpt lat="48.04417" lon="7.21582">
        <ele>341.6</ele>
        <time>2014-10-26T10:56:41Z</time>
      </trkpt>
      <trkpt lat="48.04435" lon="7.21582">
        <ele>335.1</ele>
        <time>2014-10-26T10:56:52Z</time>
      </trkpt>
      <trkpt lat="48.04455" lon="7.21594">
        <ele>329.5</ele>
        <time>2014-10-26T10:56:58Z</time>
      </trkpt>
      <trkpt lat="48.04467" lon="7.21614">
        <ele>328.7</ele>
        <time>2014-10-26T10:57:04Z</time>
      </trkpt>
      <trkpt lat="48.0448" lon="7.21635">
        <ele>327.6</ele>
        <time>2014-10-26T10:57:10Z</time>
      </trkpt>
      <trkpt lat="48.04494" lon="7.2166">
        <ele>325.9</ele>
        <time>2014-10-26T10:57:15Z</time>
      </trkpt>
      <trkpt lat="48.04505" lon="7.21682">
        <ele>324.9</ele>
        <time>2014-10-26T10:57:19Z</time>
      </trkpt>
      <trkpt lat="48.04518" lon="7.21706">
        <ele>323.3</ele>
        <time>2014-10-26T10:57:23Z</time>
      </trkpt>
      <trkpt lat="48.04532" lon="7.21729">
        <ele>322.5</ele>
        <time>2014-10-26T10:57:27Z</time>
      </trkpt>
      <trkpt lat="48.04549" lon="7.21757">
        <ele>322.3</ele>
        <time>2014-10-26T10:57:31Z</time>
      </trkpt>
      <trkpt lat="48.04561" lon="7.21786">
        <ele>322.3</ele>
        <time>2014-10-26T10:57:35Z</time>
      </trkpt>
      <trkpt lat="48.04572" lon="7.21809">
        <ele>322.1</ele>
        <time>2014-10-26T10:57:38Z</time>
      </trkpt>
      <trkpt lat="48.04582" lon="7.21836">
        <ele>322.4</ele>
        <time>2014-10-26T10:57:41Z</time>
      </trkpt>
      <trkpt lat="48.04591" lon="7.21862">
        <ele>322.4</ele>
        <time>2014-10-26T10:57:44Z</time>
      </trkpt>
      <trkpt lat="48.04601" lon="7.21885">
        <ele>322.1</ele>
        <time>2014-10-26T10:57:48Z</time>
      </trkpt>
      <trkpt lat="48.04619" lon="7.21906">
        <ele>320</ele>
        <time>2014-10-26T10:57:53Z</time>
      </trkpt>
      <trkpt lat="48.04635" lon="7.21923">
        <ele>318.6</ele>
        <time>2014-10-26T10:57:57Z</time>
      </trkpt>
      <trkpt lat="48.04651" lon="7.2194">
        <ele>317.8</ele>
        <time>2014-10-26T10:58:01Z</time>
      </trkpt>
      <trkpt lat="48.04665" lon="7.21961">
        <ele>317.5</ele>
        <time>2014-10-26T10:58:06Z</time>
      </trkpt>
      <trkpt lat="48.04675" lon="7.21988">
        <ele>319.2</ele>
        <time>2014-10-26T10:58:11Z</time>
      </trkpt>
      <trkpt lat="48.04687" lon="7.22011">
        <ele>319.4</ele>
        <time>2014-10-26T10:58:16Z</time>
      </trkpt>
      <trkpt lat="48.04701" lon="7.2203">
        <ele>317.9</ele>
        <time>2014-10-26T10:58:21Z</time>
      </trkpt>
      <trkpt lat="48.04717" lon="7.22048">
        <ele>316.8</ele>
        <time>2014-10-26T10:58:27Z</time>
      </trkpt>
      <trkpt lat="48.04733" lon="7.22065">
        <ele>317.4</ele>
        <time>2014-10-26T10:58:33Z</time>
      </trkpt>
      <trkpt lat="48.04748" lon="7.22083">
        <ele>318</ele>
        <time>2014-10-26T10:58:39Z</time>
      </trkpt>
      <trkpt lat="48.04762" lon="7.22102">
        <ele>318.6</ele>
        <time>2014-10-26T10:58:46Z</time>
      </trkpt>
      <trkpt lat="48.04778" lon="7.2212">
        <ele>318.8</ele>
        <time>2014-10-26T10:58:54Z</time>
      </trkpt>
      <trkpt lat="48.04784" lon="7.22146">
        <ele>321.6</ele>
        <time>2014-10-26T10:59:03Z</time>
      </trkpt>
      <trkpt lat="48.04798" lon="7.22168">
        <ele>322.8</ele>
        <time>2014-10-26T10:59:11Z</time>
      </trkpt>
      <trkpt lat="48.0481" lon="7.2219">
        <ele>324.4</ele>
        <time>2014-10-26T10:59:17Z</time>
      </trkpt>
      <trkpt lat="48.04819" lon="7.22217">
        <ele>327.6</ele>
        <time>2014-10-26T10:59:25Z</time>
      </trkpt>
      <trkpt lat="48.04828" lon="7.22243">
        <ele>331.5</ele>
        <time>2014-10-26T10:59:34Z</time>
      </trkpt>
      <trkpt lat="48.0484" lon="7.22219">
        <ele>324.6</ele>
        <time>2014-10-26T11:00:01Z</time>
      </trkpt>
      <trkpt lat="48.04832" lon="7.22187">
        <ele>320.8</ele>
        <time>2014-10-26T11:00:07Z</time>
      </trkpt>
      <trkpt lat="48.04815" lon="7.22168">
        <ele>320.5</ele>
        <time>2014-10-26T11:00:10Z</time>
      </trkpt>
      <trkpt lat="48.04806" lon="7.22142">
        <ele>317.9</ele>
        <time>2014-10-26T11:00:13Z</time>
      </trkpt>
      <trkpt lat="48.04825" lon="7.22163">
        <ele>318.6</ele>
        <time>2014-10-26T11:00:26Z</time>
      </trkpt>
      <trkpt lat="48.04841" lon="7.2218">
        <ele>318.8</ele>
        <time>2014-10-26T11:00:29Z</time>
      </trkpt>
      <trkpt lat="48.04855" lon="7.22205">
        <ele>319.7</ele>
        <time>2014-10-26T11:00:32Z</time>
      </trkpt>
      <trkpt lat="48.04868" lon="7.22231">
        <ele>322</ele>
        <time>2014-10-26T11:00:35Z</time>
      </trkpt>
      <trkpt lat="48.04879" lon="7.22258">
        <ele>324.1</ele>
        <time>2014-10-26T11:00:38Z</time>
      </trkpt>
      <trkpt lat="48.0489" lon="7.22284">
        <ele>325.1</ele>
        <time>2014-10-26T11:00:41Z</time>
      </trkpt>
      <trkpt lat="48.049" lon="7.22315">
        <ele>327</ele>
        <time>2014-10-26T11:00:45Z</time>
      </trkpt>
      <trkpt lat="48.04907" lon="7.22344">
        <ele>328.8</ele>
        <time>2014-10-26T11:00:49Z</time>
      </trkpt>
      <trkpt lat="48.04914" lon="7.22369">
        <ele>329.2</ele>
        <time>2014-10-26T11:00:53Z</time>
      </trkpt>
      <trkpt lat="48.04921" lon="7.22395">
        <ele>329.8</ele>
        <time>2014-10-26T11:00:57Z</time>
      </trkpt>
      <trkpt lat="48.0493" lon="7.2242">
        <ele>328.8</ele>
        <time>2014-10-26T11:01:01Z</time>
      </trkpt>
      <trkpt lat="48.04939" lon="7.2245">
        <ele>327.9</ele>
        <time>2014-10-26T11:01:06Z</time>
      </trkpt>
      <trkpt lat="48.04944" lon="7.22476">
        <ele>329.9</ele>
        <time>2014-10-26T11:01:10Z</time>
      </trkpt>
      <trkpt lat="48.04954" lon="7.22505">
        <ele>331.8</ele>
        <time>2014-10-26T11:01:14Z</time>
      </trkpt>
      <trkpt lat="48.04968" lon="7.22532">
        <ele>331.8</ele>
        <time>2014-10-26T11:01:18Z</time>
      </trkpt>
      <trkpt lat="48.04981" lon="7.22553">
        <ele>330.8</ele>
        <time>2014-10-26T11:01:21Z</time>
      </trkpt>
      <trkpt lat="48.04995" lon="7.22572">
        <ele>328.4</ele>
        <time>2014-10-26T11:01:24Z</time>
      </trkpt>
      <trkpt lat="48.05013" lon="7.22592">
        <ele>324.5</ele>
        <time>2014-10-26T11:01:28Z</time>
      </trkpt>
      <trkpt lat="48.05025" lon="7.22613">
        <ele>322.8</ele>
        <time>2014-10-26T11:01:32Z</time>
      </trkpt>
      <trkpt lat="48.05035" lon="7.2264">
        <ele>323.2</ele>
        <time>2014-10-26T11:01:37Z</time>
      </trkpt>
      <trkpt lat="48.05046" lon="7.22665">
        <ele>324.6</ele>
        <time>2014-10-26T11:01:42Z</time>
      </trkpt>
      <trkpt lat="48.05058" lon="7.22689">
        <ele>325.8</ele>
        <time>2014-10-26T11:01:48Z</time>
      </trkpt>
      <trkpt lat="48.05069" lon="7.22711">
        <ele>326.5</ele>
        <time>2014-10-26T11:01:54Z</time>
      </trkpt>
      <trkpt lat="48.05082" lon="7.22731">
        <ele>324.5</ele>
        <time>2014-10-26T11:02:00Z</time>
      </trkpt>
      <trkpt lat="48.05095" lon="7.22752">
        <ele>322.9</ele>
        <time>2014-10-26T11:02:09Z</time>
      </trkpt>
      <trkpt lat="48.05108" lon="7.22772">
        <ele>321.3</ele>
        <time>2014-10-26T11:02:14Z</time>
      </trkpt>
      <trkpt lat="48.05124" lon="7.22786">
        <ele>318.5</ele>
        <time>2014-10-26T11:02:21Z</time>
      </trkpt>
      <trkpt lat="48.05137" lon="7.22809">
        <ele>317.3</ele>
        <time>2014-10-26T11:02:28Z</time>
      </trkpt>
      <trkpt lat="48.05149" lon="7.22831">
        <ele>316.2</ele>
        <time>2014-10-26T11:02:35Z</time>
      </trkpt>
      <trkpt lat="48.05163" lon="7.22853">
        <ele>315.4</ele>
        <time>2014-10-26T11:02:43Z</time>
      </trkpt>
      <trkpt lat="48.0518" lon="7.22867">
        <ele>313.6</ele>
        <time>2014-10-26T11:02:49Z</time>
      </trkpt>
      <trkpt lat="48.052" lon="7.22881">
        <ele>312.2</ele>
        <time>2014-10-26T11:02:54Z</time>
      </trkpt>
      <trkpt lat="48.05215" lon="7.22902">
        <ele>313.4</ele>
        <time>2014-10-26T11:02:58Z</time>
      </trkpt>
      <trkpt lat="48.05227" lon="7.22923">
        <ele>314.9</ele>
        <time>2014-10-26T11:03:02Z</time>
      </trkpt>
      <trkpt lat="48.05238" lon="7.22945">
        <ele>316.5</ele>
        <time>2014-10-26T11:03:06Z</time>
      </trkpt>
      <trkpt lat="48.05248" lon="7.22969">
        <ele>318.9</ele>
        <time>2014-10-26T11:03:09Z</time>
      </trkpt>
      <trkpt lat="48.0528" lon="7.23043">
        <ele>327.4</ele>
        <time>2014-10-26T11:03:16Z</time>
      </trkpt>
      <trkpt lat="48.05301" lon="7.23083">
        <ele>330.7</ele>
        <time>2014-10-26T11:03:20Z</time>
      </trkpt>
      <trkpt lat="48.05311" lon="7.23105">
        <ele>330.3</ele>
        <time>2014-10-26T11:03:22Z</time>
      </trkpt>
      <trkpt lat="48.05325" lon="7.23136">
        <ele>329.5</ele>
        <time>2014-10-26T11:03:25Z</time>
      </trkpt>
      <trkpt lat="48.05341" lon="7.23166">
        <ele>326.1</ele>
        <time>2014-10-26T11:03:28Z</time>
      </trkpt>
      <trkpt lat="48.05357" lon="7.23202">
        <ele>322.7</ele>
        <time>2014-10-26T11:03:31Z</time>
      </trkpt>
      <trkpt lat="48.0537" lon="7.23229">
        <ele>320.3</ele>
        <time>2014-10-26T11:03:33Z</time>
      </trkpt>
      <trkpt lat="48.0538" lon="7.23254">
        <ele>319.8</ele>
        <time>2014-10-26T11:03:35Z</time>
      </trkpt>
      <trkpt lat="48.0539" lon="7.23284">
        <ele>320.7</ele>
        <time>2014-10-26T11:03:37Z</time>
      </trkpt>
      <trkpt lat="48.05399" lon="7.23308">
        <ele>320.3</ele>
        <time>2014-10-26T11:03:39Z</time>
      </trkpt>
      <trkpt lat="48.05409" lon="7.23332">
        <ele>318.6</ele>
        <time>2014-10-26T11:03:41Z</time>
      </trkpt>
      <trkpt lat="48.05419" lon="7.23355">
        <ele>317</ele>
        <time>2014-10-26T11:03:43Z</time>
      </trkpt>
      <trkpt lat="48.0543" lon="7.23386">
        <ele>315.4</ele>
        <time>2014-10-26T11:03:46Z</time>
      </trkpt>
      <trkpt lat="48.05437" lon="7.23416">
        <ele>314.9</ele>
        <time>2014-10-26T11:03:49Z</time>
      </trkpt>
      <trkpt lat="48.05447" lon="7.23444">
        <ele>311.9</ele>
        <time>2014-10-26T11:03:52Z</time>
      </trkpt>
      <trkpt lat="48.05459" lon="7.23471">
        <ele>308.7</ele>
        <time>2014-10-26T11:03:55Z</time>
      </trkpt>
      <trkpt lat="48.05471" lon="7.23495">
        <ele>310.9</ele>
        <time>2014-10-26T11:03:58Z</time>
      </trkpt>
      <trkpt lat="48.05482" lon="7.23521">
        <ele>312.5</ele>
        <time>2014-10-26T11:04:01Z</time>
      </trkpt>
      <trkpt lat="48.05493" lon="7.23544">
        <ele>312.5</ele>
        <time>2014-10-26T11:04:04Z</time>
      </trkpt>
      <trkpt lat="48.05505" lon="7.23566">
        <ele>311.8</ele>
        <time>2014-10-26T11:04:07Z</time>
      </trkpt>
      <trkpt lat="48.0552" lon="7.23593">
        <ele>310.4</ele>
        <time>2014-10-26T11:04:11Z</time>
      </trkpt>
      <trkpt lat="48.05532" lon="7.23613">
        <ele>308.5</ele>
        <time>2014-10-26T11:04:14Z</time>
      </trkpt>
      <trkpt lat="48.05546" lon="7.23638">
        <ele>308</ele>
        <time>2014-10-26T11:04:18Z</time>
      </trkpt>
      <trkpt lat="48.05558" lon="7.23659">
        <ele>309.5</ele>
        <time>2014-10-26T11:04:22Z</time>
      </trkpt>
      <trkpt lat="48.05575" lon="7.2368">
        <ele>308.3</ele>
        <time>2014-10-26T11:04:24Z</time>
      </trkpt>
      <trkpt lat="48.05593" lon="7.23688">
        <ele>303.3</ele>
        <time>2014-10-26T11:04:26Z</time>
      </trkpt>
      <trkpt lat="48.05614" lon="7.23674">
        <ele>293.9</ele>
        <time>2014-10-26T11:04:29Z</time>
      </trkpt>
      <trkpt lat="48.05635" lon="7.23651">
        <ele>287.3</ele>
        <time>2014-10-26T11:04:32Z</time>
      </trkpt>
      <trkpt lat="48.05652" lon="7.23627">
        <ele>284.5</ele>
        <time>2014-10-26T11:04:35Z</time>
      </trkpt>
      <trkpt lat="48.05669" lon="7.23605">
        <ele>283.7</ele>
        <time>2014-10-26T11:04:38Z</time>
      </trkpt>
      <trkpt lat="48.05683" lon="7.23586">
        <ele>283.1</ele>
        <time>2014-10-26T11:04:41Z</time>
      </trkpt>
      <trkpt lat="48.05696" lon="7.23566">
        <ele>282.6</ele>
        <time>2014-10-26T11:04:44Z</time>
      </trkpt>
      <trkpt lat="48.05711" lon="7.23546">
        <ele>282.1</ele>
        <time>2014-10-26T11:04:47Z</time>
      </trkpt>
      <trkpt lat="48.05725" lon="7.23528">
        <ele>282</ele>
        <time>2014-10-26T11:04:50Z</time>
      </trkpt>
      <trkpt lat="48.05738" lon="7.23511">
        <ele>282.1</ele>
        <time>2014-10-26T11:04:53Z</time>
      </trkpt>
      <trkpt lat="48.05753" lon="7.23492">
        <ele>282.3</ele>
        <time>2014-10-26T11:04:56Z</time>
      </trkpt>
      <trkpt lat="48.05767" lon="7.23475">
        <ele>282.6</ele>
        <time>2014-10-26T11:04:59Z</time>
      </trkpt>
      <trkpt lat="48.05781" lon="7.23457">
        <ele>282.9</ele>
        <time>2014-10-26T11:05:02Z</time>
      </trkpt>
      <trkpt lat="48.058" lon="7.23436">
        <ele>282.7</ele>
        <time>2014-10-26T11:05:06Z</time>
      </trkpt>
      <trkpt lat="48.05818" lon="7.23416">
        <ele>282.3</ele>
        <time>2014-10-26T11:05:10Z</time>
      </trkpt>
      <trkpt lat="48.05834" lon="7.23399">
        <ele>282.1</ele>
        <time>2014-10-26T11:05:14Z</time>
      </trkpt>
      <trkpt lat="48.05852" lon="7.23413">
        <ele>282.1</ele>
        <time>2014-10-26T11:05:20Z</time>
      </trkpt>
    </trkseg>
  </trk>
</gpx>